<?xml version="1.0" encoding="UTF-8" standalone="no" ?>
<gpx xmlns="http://www.topografix.com/GPX/1/1" xmlns:xsi="http://www.w3.org/2001/XMLSchema-instance" xsi:schemaLocation="http://www.topografix.com/GPX/1/1 http://www.topografix.com/GPX/1/1/gpx.xsd" version="1.1" creator="VisuGPX - https://www.visugpx.com">
  <metadata>
    <name>marche vers un site vol de pente La Roche</name>
    <desc><![CDATA[Planeur sous le bras, je suis parti vers un site où l\'on peut pratiquer le vol de pente planeur radioc-commandé.]]></desc>
  </metadata>
  <trk>
    <name><![CDATA[marche vers un site vol de pente La Roche_1]]></name>
    <trkseg>
      <trkpt lat="48.25211" lon="-0.35966">
        <ele>198.9</ele>
        <time>2011-09-02T12:13:39Z</time>
      </trkpt>
      <trkpt lat="48.25211" lon="-0.35966">
        <ele>228.5</ele>
        <time>2011-09-02T12:13:42Z</time>
      </trkpt>
      <trkpt lat="48.25211" lon="-0.35966">
        <ele>228.5</ele>
        <time>2011-09-02T12:14:14Z</time>
      </trkpt>
      <trkpt lat="48.25211" lon="-0.35966">
        <ele>228.5</ele>
        <time>2011-09-02T12:14:32Z</time>
      </trkpt>
      <trkpt lat="48.25211" lon="-0.35966">
        <ele>228.5</ele>
        <time>2011-09-02T12:14:52Z</time>
      </trkpt>
      <trkpt lat="48.25226" lon="-0.35973">
        <ele>228.5</ele>
        <time>2011-09-02T12:14:54Z</time>
      </trkpt>
      <trkpt lat="48.2523" lon="-0.35979">
        <ele>228.5</ele>
        <time>2011-09-02T12:15:00Z</time>
      </trkpt>
      <trkpt lat="48.25258" lon="-0.3598">
        <ele>228.5</ele>
        <time>2011-09-02T12:15:12Z</time>
      </trkpt>
      <trkpt lat="48.25258" lon="-0.3598">
        <ele>228.5</ele>
        <time>2011-09-02T12:15:44Z</time>
      </trkpt>
      <trkpt lat="48.25257" lon="-0.35966">
        <ele>228.5</ele>
        <time>2011-09-02T12:15:46Z</time>
      </trkpt>
      <trkpt lat="48.2526" lon="-0.35957">
        <ele>228.5</ele>
        <time>2011-09-02T12:15:54Z</time>
      </trkpt>
      <trkpt lat="48.25259" lon="-0.3594">
        <ele>228.5</ele>
        <time>2011-09-02T12:16:04Z</time>
      </trkpt>
      <trkpt lat="48.25271" lon="-0.35922">
        <ele>228.5</ele>
        <time>2011-09-02T12:16:18Z</time>
      </trkpt>
      <trkpt lat="48.25273" lon="-0.35905">
        <ele>228.5</ele>
        <time>2011-09-02T12:16:28Z</time>
      </trkpt>
      <trkpt lat="48.25269" lon="-0.35895">
        <ele>228.5</ele>
        <time>2011-09-02T12:16:36Z</time>
      </trkpt>
      <trkpt lat="48.25275" lon="-0.35883">
        <ele>228.5</ele>
        <time>2011-09-02T12:16:46Z</time>
      </trkpt>
      <trkpt lat="48.25277" lon="-0.35876">
        <ele>228.5</ele>
        <time>2011-09-02T12:16:50Z</time>
      </trkpt>
      <trkpt lat="48.25277" lon="-0.35866">
        <ele>228.5</ele>
        <time>2011-09-02T12:17:00Z</time>
      </trkpt>
      <trkpt lat="48.25285" lon="-0.35876">
        <ele>228.5</ele>
        <time>2011-09-02T12:17:10Z</time>
      </trkpt>
      <trkpt lat="48.25287" lon="-0.35878">
        <ele>228.5</ele>
        <time>2011-09-02T12:17:12Z</time>
      </trkpt>
      <trkpt lat="48.25294" lon="-0.35885">
        <ele>228.5</ele>
        <time>2011-09-02T12:17:18Z</time>
      </trkpt>
      <trkpt lat="48.253" lon="-0.35892">
        <ele>228.5</ele>
        <time>2011-09-02T12:17:24Z</time>
      </trkpt>
      <trkpt lat="48.25305" lon="-0.35904">
        <ele>228.5</ele>
        <time>2011-09-02T12:17:32Z</time>
      </trkpt>
      <trkpt lat="48.25308" lon="-0.35911">
        <ele>228.5</ele>
        <time>2011-09-02T12:17:38Z</time>
      </trkpt>
      <trkpt lat="48.25316" lon="-0.35921">
        <ele>228.5</ele>
        <time>2011-09-02T12:17:46Z</time>
      </trkpt>
      <trkpt lat="48.25318" lon="-0.35927">
        <ele>228.5</ele>
        <time>2011-09-02T12:17:50Z</time>
      </trkpt>
      <trkpt lat="48.25321" lon="-0.35934">
        <ele>229</ele>
        <time>2011-09-02T12:17:52Z</time>
      </trkpt>
      <trkpt lat="48.25336" lon="-0.35951">
        <ele>230</ele>
        <time>2011-09-02T12:18:00Z</time>
      </trkpt>
      <trkpt lat="48.25345" lon="-0.35956">
        <ele>231</ele>
        <time>2011-09-02T12:18:06Z</time>
      </trkpt>
      <trkpt lat="48.25354" lon="-0.3596">
        <ele>231.5</ele>
        <time>2011-09-02T12:18:16Z</time>
      </trkpt>
      <trkpt lat="48.2538" lon="-0.35952">
        <ele>236.5</ele>
        <time>2011-09-02T12:18:32Z</time>
      </trkpt>
      <trkpt lat="48.25388" lon="-0.3595">
        <ele>237.5</ele>
        <time>2011-09-02T12:18:38Z</time>
      </trkpt>
      <trkpt lat="48.25395" lon="-0.35946">
        <ele>240.5</ele>
        <time>2011-09-02T12:18:44Z</time>
      </trkpt>
      <trkpt lat="48.25401" lon="-0.35942">
        <ele>242.5</ele>
        <time>2011-09-02T12:18:48Z</time>
      </trkpt>
      <trkpt lat="48.25408" lon="-0.35943">
        <ele>243.5</ele>
        <time>2011-09-02T12:18:52Z</time>
      </trkpt>
      <trkpt lat="48.25413" lon="-0.35941">
        <ele>247.5</ele>
        <time>2011-09-02T12:18:58Z</time>
      </trkpt>
      <trkpt lat="48.25408" lon="-0.3595">
        <ele>246.5</ele>
        <time>2011-09-02T12:19:12Z</time>
      </trkpt>
      <trkpt lat="48.25411" lon="-0.35956">
        <ele>246.5</ele>
        <time>2011-09-02T12:19:16Z</time>
      </trkpt>
      <trkpt lat="48.25422" lon="-0.35968">
        <ele>245.5</ele>
        <time>2011-09-02T12:19:28Z</time>
      </trkpt>
      <trkpt lat="48.25429" lon="-0.35973">
        <ele>247</ele>
        <time>2011-09-02T12:19:34Z</time>
      </trkpt>
      <trkpt lat="48.25435" lon="-0.35977">
        <ele>248</ele>
        <time>2011-09-02T12:19:38Z</time>
      </trkpt>
      <trkpt lat="48.25439" lon="-0.35979">
        <ele>248.5</ele>
        <time>2011-09-02T12:19:40Z</time>
      </trkpt>
      <trkpt lat="48.25445" lon="-0.35987">
        <ele>250</ele>
        <time>2011-09-02T12:19:46Z</time>
      </trkpt>
      <trkpt lat="48.25448" lon="-0.35993">
        <ele>251</ele>
        <time>2011-09-02T12:19:50Z</time>
      </trkpt>
      <trkpt lat="48.25454" lon="-0.36">
        <ele>252.5</ele>
        <time>2011-09-02T12:19:58Z</time>
      </trkpt>
      <trkpt lat="48.25459" lon="-0.36">
        <ele>251.5</ele>
        <time>2011-09-02T12:20:04Z</time>
      </trkpt>
      <trkpt lat="48.25464" lon="-0.35991">
        <ele>252</ele>
        <time>2011-09-02T12:20:12Z</time>
      </trkpt>
      <trkpt lat="48.25467" lon="-0.35986">
        <ele>255.5</ele>
        <time>2011-09-02T12:20:16Z</time>
      </trkpt>
      <trkpt lat="48.25475" lon="-0.3598">
        <ele>256</ele>
        <time>2011-09-02T12:20:24Z</time>
      </trkpt>
      <trkpt lat="48.2548" lon="-0.35976">
        <ele>256.5</ele>
        <time>2011-09-02T12:20:28Z</time>
      </trkpt>
      <trkpt lat="48.25484" lon="-0.35972">
        <ele>257</ele>
        <time>2011-09-02T12:20:32Z</time>
      </trkpt>
      <trkpt lat="48.25492" lon="-0.35963">
        <ele>256.5</ele>
        <time>2011-09-02T12:20:42Z</time>
      </trkpt>
      <trkpt lat="48.25498" lon="-0.35954">
        <ele>260</ele>
        <time>2011-09-02T12:20:48Z</time>
      </trkpt>
      <trkpt lat="48.25517" lon="-0.35935">
        <ele>261.5</ele>
        <time>2011-09-02T12:21:02Z</time>
      </trkpt>
      <trkpt lat="48.25521" lon="-0.35933">
        <ele>262</ele>
        <time>2011-09-02T12:21:12Z</time>
      </trkpt>
      <trkpt lat="48.25529" lon="-0.3593">
        <ele>259</ele>
        <time>2011-09-02T12:21:32Z</time>
      </trkpt>
      <trkpt lat="48.25533" lon="-0.35926">
        <ele>259.5</ele>
        <time>2011-09-02T12:21:36Z</time>
      </trkpt>
      <trkpt lat="48.2554" lon="-0.35921">
        <ele>262</ele>
        <time>2011-09-02T12:21:42Z</time>
      </trkpt>
      <trkpt lat="48.25543" lon="-0.35917">
        <ele>262</ele>
        <time>2011-09-02T12:21:46Z</time>
      </trkpt>
      <trkpt lat="48.25559" lon="-0.35895">
        <ele>264.5</ele>
        <time>2011-09-02T12:22:00Z</time>
      </trkpt>
      <trkpt lat="48.25562" lon="-0.3589">
        <ele>266</ele>
        <time>2011-09-02T12:22:04Z</time>
      </trkpt>
      <trkpt lat="48.25569" lon="-0.35886">
        <ele>264.5</ele>
        <time>2011-09-02T12:22:12Z</time>
      </trkpt>
      <trkpt lat="48.25572" lon="-0.35882">
        <ele>265</ele>
        <time>2011-09-02T12:22:16Z</time>
      </trkpt>
      <trkpt lat="48.25577" lon="-0.35869">
        <ele>262.5</ele>
        <time>2011-09-02T12:22:24Z</time>
      </trkpt>
      <trkpt lat="48.25582" lon="-0.35862">
        <ele>263</ele>
        <time>2011-09-02T12:22:28Z</time>
      </trkpt>
      <trkpt lat="48.25591" lon="-0.35855">
        <ele>261.5</ele>
        <time>2011-09-02T12:22:40Z</time>
      </trkpt>
      <trkpt lat="48.256" lon="-0.35844">
        <ele>261.5</ele>
        <time>2011-09-02T12:22:50Z</time>
      </trkpt>
      <trkpt lat="48.25604" lon="-0.35834">
        <ele>261</ele>
        <time>2011-09-02T12:22:56Z</time>
      </trkpt>
      <trkpt lat="48.25609" lon="-0.35827">
        <ele>261.5</ele>
        <time>2011-09-02T12:23:04Z</time>
      </trkpt>
      <trkpt lat="48.25613" lon="-0.35822">
        <ele>262</ele>
        <time>2011-09-02T12:23:08Z</time>
      </trkpt>
      <trkpt lat="48.25619" lon="-0.35815">
        <ele>262.5</ele>
        <time>2011-09-02T12:23:16Z</time>
      </trkpt>
      <trkpt lat="48.25621" lon="-0.35806">
        <ele>263.5</ele>
        <time>2011-09-02T12:23:20Z</time>
      </trkpt>
      <trkpt lat="48.25622" lon="-0.35802">
        <ele>264</ele>
        <time>2011-09-02T12:23:22Z</time>
      </trkpt>
      <trkpt lat="48.25622" lon="-0.35794">
        <ele>261.5</ele>
        <time>2011-09-02T12:23:38Z</time>
      </trkpt>
      <trkpt lat="48.25631" lon="-0.3579">
        <ele>265</ele>
        <time>2011-09-02T12:23:50Z</time>
      </trkpt>
      <trkpt lat="48.25637" lon="-0.35776">
        <ele>266.5</ele>
        <time>2011-09-02T12:24:00Z</time>
      </trkpt>
      <trkpt lat="48.25643" lon="-0.35761">
        <ele>266.5</ele>
        <time>2011-09-02T12:24:10Z</time>
      </trkpt>
      <trkpt lat="48.25648" lon="-0.35756">
        <ele>269</ele>
        <time>2011-09-02T12:24:18Z</time>
      </trkpt>
      <trkpt lat="48.25654" lon="-0.35744">
        <ele>269.5</ele>
        <time>2011-09-02T12:24:26Z</time>
      </trkpt>
      <trkpt lat="48.25655" lon="-0.35741">
        <ele>270</ele>
        <time>2011-09-02T12:24:28Z</time>
      </trkpt>
      <trkpt lat="48.25659" lon="-0.35735">
        <ele>271.5</ele>
        <time>2011-09-02T12:24:34Z</time>
      </trkpt>
      <trkpt lat="48.25676" lon="-0.35712">
        <ele>276.5</ele>
        <time>2011-09-02T12:24:50Z</time>
      </trkpt>
      <trkpt lat="48.25685" lon="-0.35699">
        <ele>280.5</ele>
        <time>2011-09-02T12:25:00Z</time>
      </trkpt>
      <trkpt lat="48.2569" lon="-0.3569">
        <ele>283</ele>
        <time>2011-09-02T12:25:08Z</time>
      </trkpt>
      <trkpt lat="48.25693" lon="-0.35684">
        <ele>284</ele>
        <time>2011-09-02T12:25:12Z</time>
      </trkpt>
      <trkpt lat="48.25696" lon="-0.35679">
        <ele>284</ele>
        <time>2011-09-02T12:25:16Z</time>
      </trkpt>
      <trkpt lat="48.25705" lon="-0.35675">
        <ele>282</ele>
        <time>2011-09-02T12:25:28Z</time>
      </trkpt>
      <trkpt lat="48.25716" lon="-0.35653">
        <ele>285</ele>
        <time>2011-09-02T12:25:42Z</time>
      </trkpt>
      <trkpt lat="48.25724" lon="-0.35642">
        <ele>286.5</ele>
        <time>2011-09-02T12:25:52Z</time>
      </trkpt>
      <trkpt lat="48.25727" lon="-0.35632">
        <ele>288</ele>
        <time>2011-09-02T12:25:58Z</time>
      </trkpt>
      <trkpt lat="48.25743" lon="-0.35655">
        <ele>293</ele>
        <time>2011-09-02T12:26:16Z</time>
      </trkpt>
      <trkpt lat="48.25751" lon="-0.35672">
        <ele>293</ele>
        <time>2011-09-02T12:26:26Z</time>
      </trkpt>
      <trkpt lat="48.25758" lon="-0.35693">
        <ele>293</ele>
        <time>2011-09-02T12:26:38Z</time>
      </trkpt>
      <trkpt lat="48.25765" lon="-0.35708">
        <ele>296.5</ele>
        <time>2011-09-02T12:26:52Z</time>
      </trkpt>
      <trkpt lat="48.25773" lon="-0.35723">
        <ele>296.5</ele>
        <time>2011-09-02T12:27:02Z</time>
      </trkpt>
      <trkpt lat="48.25779" lon="-0.35732">
        <ele>294</ele>
        <time>2011-09-02T12:27:08Z</time>
      </trkpt>
      <trkpt lat="48.25778" lon="-0.35742">
        <ele>293.5</ele>
        <time>2011-09-02T12:27:18Z</time>
      </trkpt>
      <trkpt lat="48.25776" lon="-0.35751">
        <ele>292.5</ele>
        <time>2011-09-02T12:27:26Z</time>
      </trkpt>
      <trkpt lat="48.25788" lon="-0.35761">
        <ele>291.5</ele>
        <time>2011-09-02T12:27:33Z</time>
      </trkpt>
      <trkpt lat="48.25803" lon="-0.35772">
        <ele>294.5</ele>
        <time>2011-09-02T12:27:43Z</time>
      </trkpt>
      <trkpt lat="48.25818" lon="-0.3579">
        <ele>296.5</ele>
        <time>2011-09-02T12:27:53Z</time>
      </trkpt>
      <trkpt lat="48.25829" lon="-0.35802">
        <ele>296</ele>
        <time>2011-09-02T12:28:01Z</time>
      </trkpt>
      <trkpt lat="48.25837" lon="-0.35817">
        <ele>292.5</ele>
        <time>2011-09-02T12:28:10Z</time>
      </trkpt>
      <trkpt lat="48.25841" lon="-0.35827">
        <ele>290</ele>
        <time>2011-09-02T12:28:20Z</time>
      </trkpt>
      <trkpt lat="48.25844" lon="-0.35837">
        <ele>289</ele>
        <time>2011-09-02T12:28:24Z</time>
      </trkpt>
      <trkpt lat="48.25856" lon="-0.3585">
        <ele>286.5</ele>
        <time>2011-09-02T12:28:36Z</time>
      </trkpt>
      <trkpt lat="48.25863" lon="-0.35862">
        <ele>284.5</ele>
        <time>2011-09-02T12:28:44Z</time>
      </trkpt>
      <trkpt lat="48.25876" lon="-0.35864">
        <ele>284</ele>
        <time>2011-09-02T12:28:56Z</time>
      </trkpt>
      <trkpt lat="48.2587" lon="-0.35873">
        <ele>283</ele>
        <time>2011-09-02T12:29:06Z</time>
      </trkpt>
      <trkpt lat="48.25866" lon="-0.35879">
        <ele>283</ele>
        <time>2011-09-02T12:29:14Z</time>
      </trkpt>
      <trkpt lat="48.25866" lon="-0.35887">
        <ele>279.5</ele>
        <time>2011-09-02T12:29:20Z</time>
      </trkpt>
      <trkpt lat="48.2587" lon="-0.35896">
        <ele>277.5</ele>
        <time>2011-09-02T12:29:28Z</time>
      </trkpt>
      <trkpt lat="48.25881" lon="-0.3591">
        <ele>273.5</ele>
        <time>2011-09-02T12:29:36Z</time>
      </trkpt>
      <trkpt lat="48.25887" lon="-0.35914">
        <ele>274.5</ele>
        <time>2011-09-02T12:29:40Z</time>
      </trkpt>
      <trkpt lat="48.2589" lon="-0.35924">
        <ele>277</ele>
        <time>2011-09-02T12:29:50Z</time>
      </trkpt>
      <trkpt lat="48.25892" lon="-0.35929">
        <ele>278.5</ele>
        <time>2011-09-02T12:29:52Z</time>
      </trkpt>
      <trkpt lat="48.259" lon="-0.35943">
        <ele>277</ele>
        <time>2011-09-02T12:30:02Z</time>
      </trkpt>
      <trkpt lat="48.25908" lon="-0.35954">
        <ele>273.5</ele>
        <time>2011-09-02T12:30:12Z</time>
      </trkpt>
      <trkpt lat="48.25911" lon="-0.35962">
        <ele>273</ele>
        <time>2011-09-02T12:30:16Z</time>
      </trkpt>
      <trkpt lat="48.25918" lon="-0.35979">
        <ele>273.5</ele>
        <time>2011-09-02T12:30:24Z</time>
      </trkpt>
      <trkpt lat="48.25925" lon="-0.35983">
        <ele>272.5</ele>
        <time>2011-09-02T12:30:30Z</time>
      </trkpt>
      <trkpt lat="48.25933" lon="-0.36001">
        <ele>271</ele>
        <time>2011-09-02T12:30:38Z</time>
      </trkpt>
      <trkpt lat="48.25943" lon="-0.36017">
        <ele>267.5</ele>
        <time>2011-09-02T12:30:50Z</time>
      </trkpt>
      <trkpt lat="48.2595" lon="-0.36031">
        <ele>268</ele>
        <time>2011-09-02T12:31:02Z</time>
      </trkpt>
      <trkpt lat="48.2596" lon="-0.36043">
        <ele>270</ele>
        <time>2011-09-02T12:31:10Z</time>
      </trkpt>
      <trkpt lat="48.2597" lon="-0.36056">
        <ele>266.5</ele>
        <time>2011-09-02T12:31:22Z</time>
      </trkpt>
      <trkpt lat="48.2597" lon="-0.36056">
        <ele>266.5</ele>
        <time>2011-09-02T12:32:02Z</time>
      </trkpt>
      <trkpt lat="48.2597" lon="-0.36056">
        <ele>266.5</ele>
        <time>2011-09-02T12:32:29Z</time>
      </trkpt>
      <trkpt lat="48.2597" lon="-0.36075">
        <ele>272.5</ele>
        <time>2011-09-02T12:32:31Z</time>
      </trkpt>
      <trkpt lat="48.25964" lon="-0.36077">
        <ele>274.5</ele>
        <time>2011-09-02T12:32:41Z</time>
      </trkpt>
      <trkpt lat="48.2597" lon="-0.36072">
        <ele>274.5</ele>
        <time>2011-09-02T12:32:55Z</time>
      </trkpt>
      <trkpt lat="48.2597" lon="-0.36072">
        <ele>274.5</ele>
        <time>2011-09-02T12:33:35Z</time>
      </trkpt>
      <trkpt lat="48.2597" lon="-0.36072">
        <ele>274.5</ele>
        <time>2011-09-02T12:33:56Z</time>
      </trkpt>
      <trkpt lat="48.2597" lon="-0.36072">
        <ele>243.9</ele>
        <time>2011-09-02T12:33:56Z</time>
      </trkpt>
      <trkpt lat="48.2597" lon="-0.36072">
        <ele>243.9</ele>
        <time>2011-09-02T13:36:58Z</time>
      </trkpt>
      <trkpt lat="48.25954" lon="-0.36088">
        <ele>284</ele>
        <time>2011-09-02T13:37:02Z</time>
      </trkpt>
      <trkpt lat="48.25958" lon="-0.36085">
        <ele>291.5</ele>
        <time>2011-09-02T13:37:14Z</time>
      </trkpt>
      <trkpt lat="48.25962" lon="-0.36077">
        <ele>293.5</ele>
        <time>2011-09-02T13:37:20Z</time>
      </trkpt>
      <trkpt lat="48.25964" lon="-0.3607">
        <ele>293</ele>
        <time>2011-09-02T13:37:24Z</time>
      </trkpt>
      <trkpt lat="48.25967" lon="-0.36065">
        <ele>293</ele>
        <time>2011-09-02T13:37:28Z</time>
      </trkpt>
      <trkpt lat="48.2597" lon="-0.36059">
        <ele>292.5</ele>
        <time>2011-09-02T13:37:32Z</time>
      </trkpt>
      <trkpt lat="48.25977" lon="-0.36047">
        <ele>295</ele>
        <time>2011-09-02T13:37:40Z</time>
      </trkpt>
      <trkpt lat="48.25981" lon="-0.36045">
        <ele>295</ele>
        <time>2011-09-02T13:37:46Z</time>
      </trkpt>
      <trkpt lat="48.25986" lon="-0.36051">
        <ele>297</ele>
        <time>2011-09-02T13:37:56Z</time>
      </trkpt>
      <trkpt lat="48.25991" lon="-0.36054">
        <ele>297</ele>
        <time>2011-09-02T13:38:00Z</time>
      </trkpt>
      <trkpt lat="48.26001" lon="-0.36055">
        <ele>298</ele>
        <time>2011-09-02T13:38:06Z</time>
      </trkpt>
      <trkpt lat="48.26007" lon="-0.36056">
        <ele>298</ele>
        <time>2011-09-02T13:38:10Z</time>
      </trkpt>
      <trkpt lat="48.26012" lon="-0.36057">
        <ele>297.5</ele>
        <time>2011-09-02T13:38:14Z</time>
      </trkpt>
      <trkpt lat="48.26025" lon="-0.36059">
        <ele>296.5</ele>
        <time>2011-09-02T13:38:22Z</time>
      </trkpt>
      <trkpt lat="48.2603" lon="-0.36058">
        <ele>297</ele>
        <time>2011-09-02T13:38:26Z</time>
      </trkpt>
      <trkpt lat="48.26043" lon="-0.36059">
        <ele>294.5</ele>
        <time>2011-09-02T13:38:38Z</time>
      </trkpt>
      <trkpt lat="48.26052" lon="-0.36061">
        <ele>293.5</ele>
        <time>2011-09-02T13:38:44Z</time>
      </trkpt>
      <trkpt lat="48.26056" lon="-0.36062">
        <ele>293.5</ele>
        <time>2011-09-02T13:38:48Z</time>
      </trkpt>
      <trkpt lat="48.26064" lon="-0.36058">
        <ele>293.5</ele>
        <time>2011-09-02T13:38:58Z</time>
      </trkpt>
      <trkpt lat="48.26069" lon="-0.36056">
        <ele>295.5</ele>
        <time>2011-09-02T13:39:02Z</time>
      </trkpt>
      <trkpt lat="48.26079" lon="-0.36057">
        <ele>298</ele>
        <time>2011-09-02T13:39:10Z</time>
      </trkpt>
      <trkpt lat="48.26084" lon="-0.36058">
        <ele>298</ele>
        <time>2011-09-02T13:39:14Z</time>
      </trkpt>
      <trkpt lat="48.26089" lon="-0.36063">
        <ele>298.5</ele>
        <time>2011-09-02T13:39:18Z</time>
      </trkpt>
      <trkpt lat="48.26105" lon="-0.3606">
        <ele>297.5</ele>
        <time>2011-09-02T13:39:30Z</time>
      </trkpt>
      <trkpt lat="48.26109" lon="-0.36059">
        <ele>297</ele>
        <time>2011-09-02T13:39:32Z</time>
      </trkpt>
      <trkpt lat="48.26123" lon="-0.36056">
        <ele>293.5</ele>
        <time>2011-09-02T13:39:44Z</time>
      </trkpt>
      <trkpt lat="48.26132" lon="-0.36055">
        <ele>293.5</ele>
        <time>2011-09-02T13:39:54Z</time>
      </trkpt>
      <trkpt lat="48.26137" lon="-0.36052">
        <ele>294.5</ele>
        <time>2011-09-02T13:39:58Z</time>
      </trkpt>
      <trkpt lat="48.26145" lon="-0.36047">
        <ele>296.5</ele>
        <time>2011-09-02T13:40:04Z</time>
      </trkpt>
      <trkpt lat="48.26159" lon="-0.36047">
        <ele>298</ele>
        <time>2011-09-02T13:40:14Z</time>
      </trkpt>
      <trkpt lat="48.26167" lon="-0.36052">
        <ele>300</ele>
        <time>2011-09-02T13:40:22Z</time>
      </trkpt>
      <trkpt lat="48.26173" lon="-0.36052">
        <ele>299.5</ele>
        <time>2011-09-02T13:40:26Z</time>
      </trkpt>
      <trkpt lat="48.26182" lon="-0.36054">
        <ele>298.5</ele>
        <time>2011-09-02T13:40:34Z</time>
      </trkpt>
      <trkpt lat="48.26186" lon="-0.36053">
        <ele>298.5</ele>
        <time>2011-09-02T13:40:38Z</time>
      </trkpt>
      <trkpt lat="48.2619" lon="-0.36052">
        <ele>298.5</ele>
        <time>2011-09-02T13:40:40Z</time>
      </trkpt>
      <trkpt lat="48.26199" lon="-0.3605">
        <ele>298</ele>
        <time>2011-09-02T13:40:48Z</time>
      </trkpt>
      <trkpt lat="48.26204" lon="-0.36047">
        <ele>299</ele>
        <time>2011-09-02T13:40:52Z</time>
      </trkpt>
      <trkpt lat="48.26208" lon="-0.36043">
        <ele>297.5</ele>
        <time>2011-09-02T13:40:58Z</time>
      </trkpt>
      <trkpt lat="48.26214" lon="-0.36042">
        <ele>298</ele>
        <time>2011-09-02T13:41:06Z</time>
      </trkpt>
      <trkpt lat="48.26221" lon="-0.36036">
        <ele>298.5</ele>
        <time>2011-09-02T13:41:12Z</time>
      </trkpt>
      <trkpt lat="48.26225" lon="-0.36033">
        <ele>299.5</ele>
        <time>2011-09-02T13:41:16Z</time>
      </trkpt>
      <trkpt lat="48.2623" lon="-0.36033">
        <ele>299</ele>
        <time>2011-09-02T13:41:22Z</time>
      </trkpt>
      <trkpt lat="48.26238" lon="-0.36026">
        <ele>298</ele>
        <time>2011-09-02T13:41:32Z</time>
      </trkpt>
      <trkpt lat="48.26243" lon="-0.36022">
        <ele>298</ele>
        <time>2011-09-02T13:41:36Z</time>
      </trkpt>
      <trkpt lat="48.26253" lon="-0.36018">
        <ele>296.5</ele>
        <time>2011-09-02T13:41:46Z</time>
      </trkpt>
      <trkpt lat="48.2626" lon="-0.36017">
        <ele>296</ele>
        <time>2011-09-02T13:41:50Z</time>
      </trkpt>
      <trkpt lat="48.26267" lon="-0.36011">
        <ele>297</ele>
        <time>2011-09-02T13:41:56Z</time>
      </trkpt>
      <trkpt lat="48.26271" lon="-0.36008">
        <ele>299.5</ele>
        <time>2011-09-02T13:42:00Z</time>
      </trkpt>
      <trkpt lat="48.26276" lon="-0.36006">
        <ele>300</ele>
        <time>2011-09-02T13:42:04Z</time>
      </trkpt>
      <trkpt lat="48.26284" lon="-0.36">
        <ele>304</ele>
        <time>2011-09-02T13:42:10Z</time>
      </trkpt>
      <trkpt lat="48.26284" lon="-0.36">
        <ele>304</ele>
        <time>2011-09-02T13:42:26Z</time>
      </trkpt>
      <trkpt lat="48.2629" lon="-0.35998">
        <ele>306.5</ele>
        <time>2011-09-02T13:42:30Z</time>
      </trkpt>
      <trkpt lat="48.26294" lon="-0.35997">
        <ele>306.5</ele>
        <time>2011-09-02T13:42:34Z</time>
      </trkpt>
      <trkpt lat="48.26306" lon="-0.35995">
        <ele>305.5</ele>
        <time>2011-09-02T13:42:50Z</time>
      </trkpt>
      <trkpt lat="48.26319" lon="-0.35981">
        <ele>303</ele>
        <time>2011-09-02T13:43:04Z</time>
      </trkpt>
      <trkpt lat="48.26323" lon="-0.35976">
        <ele>303</ele>
        <time>2011-09-02T13:43:08Z</time>
      </trkpt>
      <trkpt lat="48.26332" lon="-0.35969">
        <ele>297</ele>
        <time>2011-09-02T13:43:18Z</time>
      </trkpt>
      <trkpt lat="48.26338" lon="-0.3597">
        <ele>295</ele>
        <time>2011-09-02T13:43:22Z</time>
      </trkpt>
      <trkpt lat="48.26343" lon="-0.35966">
        <ele>297.5</ele>
        <time>2011-09-02T13:43:28Z</time>
      </trkpt>
      <trkpt lat="48.26349" lon="-0.35963">
        <ele>300.5</ele>
        <time>2011-09-02T13:43:32Z</time>
      </trkpt>
      <trkpt lat="48.26354" lon="-0.35964">
        <ele>301</ele>
        <time>2011-09-02T13:43:36Z</time>
      </trkpt>
      <trkpt lat="48.26373" lon="-0.35968">
        <ele>304</ele>
        <time>2011-09-02T13:43:50Z</time>
      </trkpt>
      <trkpt lat="48.26381" lon="-0.35973">
        <ele>303.5</ele>
        <time>2011-09-02T13:43:58Z</time>
      </trkpt>
      <trkpt lat="48.26386" lon="-0.35978">
        <ele>300.5</ele>
        <time>2011-09-02T13:44:04Z</time>
      </trkpt>
      <trkpt lat="48.26395" lon="-0.35981">
        <ele>299</ele>
        <time>2011-09-02T13:44:10Z</time>
      </trkpt>
      <trkpt lat="48.26401" lon="-0.35983">
        <ele>299.5</ele>
        <time>2011-09-02T13:44:14Z</time>
      </trkpt>
      <trkpt lat="48.26404" lon="-0.35989">
        <ele>299</ele>
        <time>2011-09-02T13:44:18Z</time>
      </trkpt>
      <trkpt lat="48.2641" lon="-0.35997">
        <ele>297.5</ele>
        <time>2011-09-02T13:44:24Z</time>
      </trkpt>
      <trkpt lat="48.26416" lon="-0.35999">
        <ele>298</ele>
        <time>2011-09-02T13:44:28Z</time>
      </trkpt>
      <trkpt lat="48.26422" lon="-0.36004">
        <ele>299.5</ele>
        <time>2011-09-02T13:44:34Z</time>
      </trkpt>
      <trkpt lat="48.26428" lon="-0.36008">
        <ele>301</ele>
        <time>2011-09-02T13:44:40Z</time>
      </trkpt>
      <trkpt lat="48.26439" lon="-0.36019">
        <ele>305</ele>
        <time>2011-09-02T13:44:50Z</time>
      </trkpt>
      <trkpt lat="48.26443" lon="-0.36023">
        <ele>305</ele>
        <time>2011-09-02T13:44:54Z</time>
      </trkpt>
      <trkpt lat="48.26455" lon="-0.36034">
        <ele>304.5</ele>
        <time>2011-09-02T13:45:04Z</time>
      </trkpt>
      <trkpt lat="48.26462" lon="-0.36037">
        <ele>305</ele>
        <time>2011-09-02T13:45:08Z</time>
      </trkpt>
      <trkpt lat="48.26466" lon="-0.3604">
        <ele>301.5</ele>
        <time>2011-09-02T13:45:17Z</time>
      </trkpt>
      <trkpt lat="48.26469" lon="-0.36046">
        <ele>301.5</ele>
        <time>2011-09-02T13:45:21Z</time>
      </trkpt>
      <trkpt lat="48.26482" lon="-0.36077">
        <ele>304</ele>
        <time>2011-09-02T13:45:39Z</time>
      </trkpt>
      <trkpt lat="48.26488" lon="-0.36086">
        <ele>304</ele>
        <time>2011-09-02T13:45:47Z</time>
      </trkpt>
      <trkpt lat="48.26493" lon="-0.36091">
        <ele>303.5</ele>
        <time>2011-09-02T13:45:51Z</time>
      </trkpt>
      <trkpt lat="48.26499" lon="-0.36103">
        <ele>302</ele>
        <time>2011-09-02T13:45:59Z</time>
      </trkpt>
      <trkpt lat="48.26501" lon="-0.36112">
        <ele>303</ele>
        <time>2011-09-02T13:46:05Z</time>
      </trkpt>
      <trkpt lat="48.26507" lon="-0.36122">
        <ele>300</ele>
        <time>2011-09-02T13:46:13Z</time>
      </trkpt>
      <trkpt lat="48.26515" lon="-0.36133">
        <ele>296.5</ele>
        <time>2011-09-02T13:46:20Z</time>
      </trkpt>
      <trkpt lat="48.2652" lon="-0.3615">
        <ele>299.5</ele>
        <time>2011-09-02T13:46:28Z</time>
      </trkpt>
      <trkpt lat="48.26528" lon="-0.36154">
        <ele>297.5</ele>
        <time>2011-09-02T13:46:40Z</time>
      </trkpt>
      <trkpt lat="48.26533" lon="-0.36161">
        <ele>296.5</ele>
        <time>2011-09-02T13:46:46Z</time>
      </trkpt>
      <trkpt lat="48.26537" lon="-0.36181">
        <ele>297.5</ele>
        <time>2011-09-02T13:46:54Z</time>
      </trkpt>
      <trkpt lat="48.26546" lon="-0.36189">
        <ele>295</ele>
        <time>2011-09-02T13:47:06Z</time>
      </trkpt>
      <trkpt lat="48.26555" lon="-0.36198">
        <ele>294.5</ele>
        <time>2011-09-02T13:47:12Z</time>
      </trkpt>
      <trkpt lat="48.26559" lon="-0.36204">
        <ele>295.5</ele>
        <time>2011-09-02T13:47:26Z</time>
      </trkpt>
      <trkpt lat="48.26564" lon="-0.36212">
        <ele>296.5</ele>
        <time>2011-09-02T13:47:30Z</time>
      </trkpt>
      <trkpt lat="48.26567" lon="-0.36216">
        <ele>296</ele>
        <time>2011-09-02T13:47:32Z</time>
      </trkpt>
      <trkpt lat="48.26579" lon="-0.36233">
        <ele>296.5</ele>
        <time>2011-09-02T13:47:40Z</time>
      </trkpt>
      <trkpt lat="48.2658" lon="-0.36242">
        <ele>296</ele>
        <time>2011-09-02T13:47:44Z</time>
      </trkpt>
      <trkpt lat="48.26583" lon="-0.3625">
        <ele>296</ele>
        <time>2011-09-02T13:47:48Z</time>
      </trkpt>
      <trkpt lat="48.26594" lon="-0.36266">
        <ele>293</ele>
        <time>2011-09-02T13:48:02Z</time>
      </trkpt>
      <trkpt lat="48.26597" lon="-0.36271">
        <ele>294</ele>
        <time>2011-09-02T13:48:16Z</time>
      </trkpt>
      <trkpt lat="48.26603" lon="-0.36279">
        <ele>294.5</ele>
        <time>2011-09-02T13:48:30Z</time>
      </trkpt>
      <trkpt lat="48.26607" lon="-0.36283">
        <ele>293.5</ele>
        <time>2011-09-02T13:48:36Z</time>
      </trkpt>
      <trkpt lat="48.26612" lon="-0.36289">
        <ele>291.5</ele>
        <time>2011-09-02T13:48:38Z</time>
      </trkpt>
      <trkpt lat="48.26617" lon="-0.36301">
        <ele>292.5</ele>
        <time>2011-09-02T13:48:44Z</time>
      </trkpt>
      <trkpt lat="48.26619" lon="-0.36308">
        <ele>293</ele>
        <time>2011-09-02T13:48:48Z</time>
      </trkpt>
      <trkpt lat="48.26618" lon="-0.36322">
        <ele>293</ele>
        <time>2011-09-02T13:48:54Z</time>
      </trkpt>
      <trkpt lat="48.26625" lon="-0.36331">
        <ele>291.5</ele>
        <time>2011-09-02T13:49:00Z</time>
      </trkpt>
      <trkpt lat="48.26629" lon="-0.36338">
        <ele>288</ele>
        <time>2011-09-02T13:49:06Z</time>
      </trkpt>
      <trkpt lat="48.26633" lon="-0.36342">
        <ele>284.5</ele>
        <time>2011-09-02T13:49:12Z</time>
      </trkpt>
      <trkpt lat="48.2664" lon="-0.36349">
        <ele>280</ele>
        <time>2011-09-02T13:49:18Z</time>
      </trkpt>
      <trkpt lat="48.26644" lon="-0.36357">
        <ele>282</ele>
        <time>2011-09-02T13:49:24Z</time>
      </trkpt>
      <trkpt lat="48.26652" lon="-0.3637">
        <ele>277.5</ele>
        <time>2011-09-02T13:49:36Z</time>
      </trkpt>
      <trkpt lat="48.26656" lon="-0.36377">
        <ele>278</ele>
        <time>2011-09-02T13:49:40Z</time>
      </trkpt>
      <trkpt lat="48.26669" lon="-0.36393">
        <ele>279.5</ele>
        <time>2011-09-02T13:49:50Z</time>
      </trkpt>
      <trkpt lat="48.26681" lon="-0.36391">
        <ele>278.5</ele>
        <time>2011-09-02T13:49:58Z</time>
      </trkpt>
      <trkpt lat="48.26699" lon="-0.36396">
        <ele>279</ele>
        <time>2011-09-02T13:50:12Z</time>
      </trkpt>
      <trkpt lat="48.26713" lon="-0.36404">
        <ele>280.5</ele>
        <time>2011-09-02T13:50:22Z</time>
      </trkpt>
      <trkpt lat="48.26722" lon="-0.3641">
        <ele>278</ele>
        <time>2011-09-02T13:50:30Z</time>
      </trkpt>
      <trkpt lat="48.2673" lon="-0.36418">
        <ele>276</ele>
        <time>2011-09-02T13:50:36Z</time>
      </trkpt>
      <trkpt lat="48.26744" lon="-0.3642">
        <ele>275.5</ele>
        <time>2011-09-02T13:50:46Z</time>
      </trkpt>
      <trkpt lat="48.2675" lon="-0.3642">
        <ele>273.5</ele>
        <time>2011-09-02T13:50:50Z</time>
      </trkpt>
      <trkpt lat="48.26756" lon="-0.36421">
        <ele>270.5</ele>
        <time>2011-09-02T13:50:56Z</time>
      </trkpt>
      <trkpt lat="48.2676" lon="-0.36417">
        <ele>270</ele>
        <time>2011-09-02T13:51:00Z</time>
      </trkpt>
      <trkpt lat="48.2676" lon="-0.36417">
        <ele>270</ele>
        <time>2011-09-02T13:51:17Z</time>
      </trkpt>
      <trkpt lat="48.2676" lon="-0.36417">
        <ele>270</ele>
        <time>2011-09-02T13:51:33Z</time>
      </trkpt>
      <trkpt lat="48.2676" lon="-0.36417">
        <ele>270</ele>
        <time>2011-09-02T13:51:49Z</time>
      </trkpt>
      <trkpt lat="48.2676" lon="-0.36417">
        <ele>270</ele>
        <time>2011-09-02T13:52:05Z</time>
      </trkpt>
      <trkpt lat="48.2676" lon="-0.36417">
        <ele>270</ele>
        <time>2011-09-02T13:52:21Z</time>
      </trkpt>
      <trkpt lat="48.2676" lon="-0.36417">
        <ele>270</ele>
        <time>2011-09-02T13:52:37Z</time>
      </trkpt>
      <trkpt lat="48.2676" lon="-0.36417">
        <ele>270</ele>
        <time>2011-09-02T13:52:53Z</time>
      </trkpt>
      <trkpt lat="48.2676" lon="-0.36417">
        <ele>270</ele>
        <time>2011-09-02T13:53:11Z</time>
      </trkpt>
      <trkpt lat="48.2676" lon="-0.36417">
        <ele>270</ele>
        <time>2011-09-02T13:53:27Z</time>
      </trkpt>
      <trkpt lat="48.2676" lon="-0.36417">
        <ele>270</ele>
        <time>2011-09-02T13:53:44Z</time>
      </trkpt>
      <trkpt lat="48.2676" lon="-0.36417">
        <ele>270</ele>
        <time>2011-09-02T13:54:14Z</time>
      </trkpt>
      <trkpt lat="48.2676" lon="-0.36417">
        <ele>270</ele>
        <time>2011-09-02T13:54:30Z</time>
      </trkpt>
      <trkpt lat="48.2676" lon="-0.36417">
        <ele>270</ele>
        <time>2011-09-02T13:54:48Z</time>
      </trkpt>
      <trkpt lat="48.2676" lon="-0.36417">
        <ele>270</ele>
        <time>2011-09-02T13:55:08Z</time>
      </trkpt>
      <trkpt lat="48.2676" lon="-0.36417">
        <ele>270</ele>
        <time>2011-09-02T13:55:24Z</time>
      </trkpt>
      <trkpt lat="48.2676" lon="-0.36417">
        <ele>270</ele>
        <time>2011-09-02T13:55:40Z</time>
      </trkpt>
      <trkpt lat="48.2676" lon="-0.36417">
        <ele>270</ele>
        <time>2011-09-02T13:55:56Z</time>
      </trkpt>
      <trkpt lat="48.2676" lon="-0.36417">
        <ele>270</ele>
        <time>2011-09-02T13:56:24Z</time>
      </trkpt>
      <trkpt lat="48.2676" lon="-0.36417">
        <ele>270</ele>
        <time>2011-09-02T13:56:42Z</time>
      </trkpt>
      <trkpt lat="48.2676" lon="-0.36417">
        <ele>270</ele>
        <time>2011-09-02T13:57:00Z</time>
      </trkpt>
      <trkpt lat="48.2676" lon="-0.36417">
        <ele>270</ele>
        <time>2011-09-02T13:57:20Z</time>
      </trkpt>
      <trkpt lat="48.2676" lon="-0.36417">
        <ele>270</ele>
        <time>2011-09-02T13:57:38Z</time>
      </trkpt>
      <trkpt lat="48.2676" lon="-0.36417">
        <ele>270</ele>
        <time>2011-09-02T13:57:58Z</time>
      </trkpt>
      <trkpt lat="48.2676" lon="-0.36417">
        <ele>270</ele>
        <time>2011-09-02T13:58:16Z</time>
      </trkpt>
      <trkpt lat="48.26769" lon="-0.36422">
        <ele>269</ele>
        <time>2011-09-02T13:58:32Z</time>
      </trkpt>
      <trkpt lat="48.26775" lon="-0.36424">
        <ele>270</ele>
        <time>2011-09-02T13:58:36Z</time>
      </trkpt>
      <trkpt lat="48.26789" lon="-0.36424">
        <ele>272</ele>
        <time>2011-09-02T13:58:46Z</time>
      </trkpt>
      <trkpt lat="48.26791" lon="-0.36423">
        <ele>271.5</ele>
        <time>2011-09-02T13:58:48Z</time>
      </trkpt>
      <trkpt lat="48.26796" lon="-0.36421">
        <ele>271</ele>
        <time>2011-09-02T13:58:52Z</time>
      </trkpt>
      <trkpt lat="48.26813" lon="-0.36427">
        <ele>273</ele>
        <time>2011-09-02T13:59:04Z</time>
      </trkpt>
      <trkpt lat="48.26816" lon="-0.36426">
        <ele>272.5</ele>
        <time>2011-09-02T13:59:06Z</time>
      </trkpt>
      <trkpt lat="48.26823" lon="-0.36429">
        <ele>272.5</ele>
        <time>2011-09-02T13:59:12Z</time>
      </trkpt>
      <trkpt lat="48.26826" lon="-0.3643">
        <ele>272.5</ele>
        <time>2011-09-02T13:59:14Z</time>
      </trkpt>
      <trkpt lat="48.26831" lon="-0.36436">
        <ele>272.5</ele>
        <time>2011-09-02T13:59:20Z</time>
      </trkpt>
      <trkpt lat="48.26835" lon="-0.36443">
        <ele>273.5</ele>
        <time>2011-09-02T13:59:24Z</time>
      </trkpt>
      <trkpt lat="48.26841" lon="-0.36449">
        <ele>275</ele>
        <time>2011-09-02T13:59:30Z</time>
      </trkpt>
      <trkpt lat="48.26843" lon="-0.36452">
        <ele>275</ele>
        <time>2011-09-02T13:59:32Z</time>
      </trkpt>
      <trkpt lat="48.26848" lon="-0.36459">
        <ele>274.5</ele>
        <time>2011-09-02T13:59:36Z</time>
      </trkpt>
      <trkpt lat="48.26849" lon="-0.36471">
        <ele>277</ele>
        <time>2011-09-02T13:59:42Z</time>
      </trkpt>
      <trkpt lat="48.26851" lon="-0.36477">
        <ele>277.5</ele>
        <time>2011-09-02T13:59:46Z</time>
      </trkpt>
      <trkpt lat="48.26856" lon="-0.3649">
        <ele>274.5</ele>
        <time>2011-09-02T13:59:54Z</time>
      </trkpt>
      <trkpt lat="48.26864" lon="-0.36495">
        <ele>275.5</ele>
        <time>2011-09-02T13:59:58Z</time>
      </trkpt>
      <trkpt lat="48.26865" lon="-0.36508">
        <ele>276.5</ele>
        <time>2011-09-02T14:00:04Z</time>
      </trkpt>
      <trkpt lat="48.26862" lon="-0.36515">
        <ele>277</ele>
        <time>2011-09-02T14:00:08Z</time>
      </trkpt>
      <trkpt lat="48.2686" lon="-0.3652">
        <ele>278</ele>
        <time>2011-09-02T14:00:10Z</time>
      </trkpt>
      <trkpt lat="48.26859" lon="-0.36531">
        <ele>277</ele>
        <time>2011-09-02T14:00:16Z</time>
      </trkpt>
      <trkpt lat="48.26859" lon="-0.36538">
        <ele>275</ele>
        <time>2011-09-02T14:00:22Z</time>
      </trkpt>
      <trkpt lat="48.26857" lon="-0.36549">
        <ele>273</ele>
        <time>2011-09-02T14:00:28Z</time>
      </trkpt>
      <trkpt lat="48.26855" lon="-0.36557">
        <ele>272</ele>
        <time>2011-09-02T14:00:32Z</time>
      </trkpt>
      <trkpt lat="48.2685" lon="-0.36566">
        <ele>273</ele>
        <time>2011-09-02T14:00:36Z</time>
      </trkpt>
      <trkpt lat="48.26847" lon="-0.3658">
        <ele>275.5</ele>
        <time>2011-09-02T14:00:42Z</time>
      </trkpt>
      <trkpt lat="48.26845" lon="-0.36589">
        <ele>275</ele>
        <time>2011-09-02T14:00:48Z</time>
      </trkpt>
      <trkpt lat="48.26842" lon="-0.36596">
        <ele>274</ele>
        <time>2011-09-02T14:00:54Z</time>
      </trkpt>
      <trkpt lat="48.2684" lon="-0.36604">
        <ele>275.5</ele>
        <time>2011-09-02T14:00:58Z</time>
      </trkpt>
      <trkpt lat="48.26842" lon="-0.36615">
        <ele>278.5</ele>
        <time>2011-09-02T14:01:08Z</time>
      </trkpt>
      <trkpt lat="48.26842" lon="-0.36624">
        <ele>276.5</ele>
        <time>2011-09-02T14:01:12Z</time>
      </trkpt>
      <trkpt lat="48.26842" lon="-0.36633">
        <ele>276.5</ele>
        <time>2011-09-02T14:01:18Z</time>
      </trkpt>
      <trkpt lat="48.2684" lon="-0.3664">
        <ele>276.5</ele>
        <time>2011-09-02T14:01:22Z</time>
      </trkpt>
      <trkpt lat="48.26835" lon="-0.3665">
        <ele>278</ele>
        <time>2011-09-02T14:01:30Z</time>
      </trkpt>
      <trkpt lat="48.26832" lon="-0.36656">
        <ele>280</ele>
        <time>2011-09-02T14:01:36Z</time>
      </trkpt>
      <trkpt lat="48.26828" lon="-0.36674">
        <ele>285.5</ele>
        <time>2011-09-02T14:01:48Z</time>
      </trkpt>
      <trkpt lat="48.26828" lon="-0.3669">
        <ele>284</ele>
        <time>2011-09-02T14:01:58Z</time>
      </trkpt>
      <trkpt lat="48.2683" lon="-0.36698">
        <ele>284.5</ele>
        <time>2011-09-02T14:02:02Z</time>
      </trkpt>
      <trkpt lat="48.26835" lon="-0.3671">
        <ele>286</ele>
        <time>2011-09-02T14:02:10Z</time>
      </trkpt>
      <trkpt lat="48.26838" lon="-0.36723">
        <ele>285.5</ele>
        <time>2011-09-02T14:02:18Z</time>
      </trkpt>
      <trkpt lat="48.26843" lon="-0.36736">
        <ele>287.5</ele>
        <time>2011-09-02T14:02:24Z</time>
      </trkpt>
      <trkpt lat="48.26847" lon="-0.36744">
        <ele>285.5</ele>
        <time>2011-09-02T14:02:28Z</time>
      </trkpt>
      <trkpt lat="48.26849" lon="-0.36758">
        <ele>283</ele>
        <time>2011-09-02T14:02:38Z</time>
      </trkpt>
      <trkpt lat="48.26852" lon="-0.36764">
        <ele>287</ele>
        <time>2011-09-02T14:02:40Z</time>
      </trkpt>
      <trkpt lat="48.26858" lon="-0.36767">
        <ele>288</ele>
        <time>2011-09-02T14:02:42Z</time>
      </trkpt>
      <trkpt lat="48.26869" lon="-0.36785">
        <ele>289</ele>
        <time>2011-09-02T14:02:54Z</time>
      </trkpt>
      <trkpt lat="48.26875" lon="-0.36802">
        <ele>295</ele>
        <time>2011-09-02T14:03:02Z</time>
      </trkpt>
      <trkpt lat="48.26882" lon="-0.36807">
        <ele>294.5</ele>
        <time>2011-09-02T14:03:10Z</time>
      </trkpt>
      <trkpt lat="48.26885" lon="-0.36813">
        <ele>292.5</ele>
        <time>2011-09-02T14:03:12Z</time>
      </trkpt>
      <trkpt lat="48.26891" lon="-0.36832">
        <ele>288</ele>
        <time>2011-09-02T14:03:26Z</time>
      </trkpt>
      <trkpt lat="48.26897" lon="-0.3684">
        <ele>287</ele>
        <time>2011-09-02T14:03:36Z</time>
      </trkpt>
      <trkpt lat="48.26906" lon="-0.36852">
        <ele>285.5</ele>
        <time>2011-09-02T14:03:46Z</time>
      </trkpt>
      <trkpt lat="48.26911" lon="-0.36862">
        <ele>287.5</ele>
        <time>2011-09-02T14:03:50Z</time>
      </trkpt>
      <trkpt lat="48.26913" lon="-0.36876">
        <ele>284.5</ele>
        <time>2011-09-02T14:04:00Z</time>
      </trkpt>
      <trkpt lat="48.26911" lon="-0.36883">
        <ele>283</ele>
        <time>2011-09-02T14:04:04Z</time>
      </trkpt>
      <trkpt lat="48.26913" lon="-0.369">
        <ele>285</ele>
        <time>2011-09-02T14:04:12Z</time>
      </trkpt>
      <trkpt lat="48.26918" lon="-0.36907">
        <ele>290</ele>
        <time>2011-09-02T14:04:16Z</time>
      </trkpt>
      <trkpt lat="48.26917" lon="-0.36921">
        <ele>291</ele>
        <time>2011-09-02T14:04:22Z</time>
      </trkpt>
      <trkpt lat="48.26923" lon="-0.36949">
        <ele>289.5</ele>
        <time>2011-09-02T14:04:36Z</time>
      </trkpt>
      <trkpt lat="48.26921" lon="-0.36964">
        <ele>286.5</ele>
        <time>2011-09-02T14:04:48Z</time>
      </trkpt>
      <trkpt lat="48.26917" lon="-0.36987">
        <ele>287.5</ele>
        <time>2011-09-02T14:05:04Z</time>
      </trkpt>
      <trkpt lat="48.26917" lon="-0.36994">
        <ele>288</ele>
        <time>2011-09-02T14:05:08Z</time>
      </trkpt>
      <trkpt lat="48.26926" lon="-0.37003">
        <ele>292</ele>
        <time>2011-09-02T14:05:14Z</time>
      </trkpt>
      <trkpt lat="48.26908" lon="-0.37038">
        <ele>295.5</ele>
        <time>2011-09-02T14:05:30Z</time>
      </trkpt>
      <trkpt lat="48.26913" lon="-0.37053">
        <ele>290.5</ele>
        <time>2011-09-02T14:05:40Z</time>
      </trkpt>
      <trkpt lat="48.26907" lon="-0.37076">
        <ele>292</ele>
        <time>2011-09-02T14:05:52Z</time>
      </trkpt>
      <trkpt lat="48.26903" lon="-0.37104">
        <ele>292</ele>
        <time>2011-09-02T14:06:04Z</time>
      </trkpt>
      <trkpt lat="48.26902" lon="-0.37123">
        <ele>292.5</ele>
        <time>2011-09-02T14:06:14Z</time>
      </trkpt>
      <trkpt lat="48.26906" lon="-0.37137">
        <ele>292.5</ele>
        <time>2011-09-02T14:06:22Z</time>
      </trkpt>
      <trkpt lat="48.26909" lon="-0.37145">
        <ele>292.5</ele>
        <time>2011-09-02T14:06:26Z</time>
      </trkpt>
      <trkpt lat="48.26915" lon="-0.37163">
        <ele>289.5</ele>
        <time>2011-09-02T14:06:36Z</time>
      </trkpt>
      <trkpt lat="48.26919" lon="-0.37172">
        <ele>291</ele>
        <time>2011-09-02T14:06:41Z</time>
      </trkpt>
      <trkpt lat="48.26926" lon="-0.37182">
        <ele>291</ele>
        <time>2011-09-02T14:06:49Z</time>
      </trkpt>
      <trkpt lat="48.26936" lon="-0.37201">
        <ele>288.5</ele>
        <time>2011-09-02T14:07:03Z</time>
      </trkpt>
      <trkpt lat="48.26943" lon="-0.3722">
        <ele>288.5</ele>
        <time>2011-09-02T14:07:17Z</time>
      </trkpt>
      <trkpt lat="48.26947" lon="-0.37232">
        <ele>287</ele>
        <time>2011-09-02T14:07:23Z</time>
      </trkpt>
      <trkpt lat="48.2695" lon="-0.3724">
        <ele>288.5</ele>
        <time>2011-09-02T14:07:29Z</time>
      </trkpt>
      <trkpt lat="48.26963" lon="-0.37255">
        <ele>287.5</ele>
        <time>2011-09-02T14:07:39Z</time>
      </trkpt>
      <trkpt lat="48.26968" lon="-0.37272">
        <ele>289</ele>
        <time>2011-09-02T14:07:49Z</time>
      </trkpt>
      <trkpt lat="48.26969" lon="-0.37277">
        <ele>290</ele>
        <time>2011-09-02T14:07:51Z</time>
      </trkpt>
      <trkpt lat="48.26969" lon="-0.37288">
        <ele>292.5</ele>
        <time>2011-09-02T14:07:57Z</time>
      </trkpt>
      <trkpt lat="48.26967" lon="-0.37298">
        <ele>294</ele>
        <time>2011-09-02T14:08:03Z</time>
      </trkpt>
      <trkpt lat="48.26964" lon="-0.37311">
        <ele>296</ele>
        <time>2011-09-02T14:08:15Z</time>
      </trkpt>
      <trkpt lat="48.26958" lon="-0.37326">
        <ele>307.5</ele>
        <time>2011-09-02T14:08:27Z</time>
      </trkpt>
      <trkpt lat="48.26952" lon="-0.37339">
        <ele>310</ele>
        <time>2011-09-02T14:08:33Z</time>
      </trkpt>
      <trkpt lat="48.26944" lon="-0.37348">
        <ele>306</ele>
        <time>2011-09-02T14:08:39Z</time>
      </trkpt>
      <trkpt lat="48.26941" lon="-0.37369">
        <ele>304</ele>
        <time>2011-09-02T14:08:53Z</time>
      </trkpt>
      <trkpt lat="48.2694" lon="-0.37373">
        <ele>304</ele>
        <time>2011-09-02T14:08:55Z</time>
      </trkpt>
      <trkpt lat="48.26951" lon="-0.37391">
        <ele>302.5</ele>
        <time>2011-09-02T14:09:09Z</time>
      </trkpt>
      <trkpt lat="48.26955" lon="-0.37403">
        <ele>303.5</ele>
        <time>2011-09-02T14:09:17Z</time>
      </trkpt>
      <trkpt lat="48.2696" lon="-0.3741">
        <ele>302</ele>
        <time>2011-09-02T14:09:21Z</time>
      </trkpt>
      <trkpt lat="48.26964" lon="-0.37415">
        <ele>301</ele>
        <time>2011-09-02T14:09:25Z</time>
      </trkpt>
      <trkpt lat="48.26972" lon="-0.37421">
        <ele>301.5</ele>
        <time>2011-09-02T14:09:33Z</time>
      </trkpt>
      <trkpt lat="48.26977" lon="-0.37425">
        <ele>301</ele>
        <time>2011-09-02T14:09:37Z</time>
      </trkpt>
      <trkpt lat="48.26978" lon="-0.3744">
        <ele>297</ele>
        <time>2011-09-02T14:09:45Z</time>
      </trkpt>
      <trkpt lat="48.26978" lon="-0.37448">
        <ele>296.5</ele>
        <time>2011-09-02T14:09:51Z</time>
      </trkpt>
      <trkpt lat="48.26984" lon="-0.37463">
        <ele>296</ele>
        <time>2011-09-02T14:09:57Z</time>
      </trkpt>
      <trkpt lat="48.26987" lon="-0.37485">
        <ele>301</ele>
        <time>2011-09-02T14:10:09Z</time>
      </trkpt>
      <trkpt lat="48.26986" lon="-0.37498">
        <ele>306</ele>
        <time>2011-09-02T14:10:19Z</time>
      </trkpt>
      <trkpt lat="48.26986" lon="-0.37502">
        <ele>305.5</ele>
        <time>2011-09-02T14:10:23Z</time>
      </trkpt>
      <trkpt lat="48.26983" lon="-0.37512">
        <ele>303.5</ele>
        <time>2011-09-02T14:10:29Z</time>
      </trkpt>
      <trkpt lat="48.2698" lon="-0.37522">
        <ele>304</ele>
        <time>2011-09-02T14:10:33Z</time>
      </trkpt>
      <trkpt lat="48.26978" lon="-0.37527">
        <ele>303</ele>
        <time>2011-09-02T14:10:35Z</time>
      </trkpt>
      <trkpt lat="48.26977" lon="-0.37536">
        <ele>302.5</ele>
        <time>2011-09-02T14:10:39Z</time>
      </trkpt>
      <trkpt lat="48.26983" lon="-0.37542">
        <ele>303.5</ele>
        <time>2011-09-02T14:10:45Z</time>
      </trkpt>
      <trkpt lat="48.26988" lon="-0.37545">
        <ele>305.5</ele>
        <time>2011-09-02T14:10:49Z</time>
      </trkpt>
      <trkpt lat="48.26994" lon="-0.37549">
        <ele>308</ele>
        <time>2011-09-02T14:10:55Z</time>
      </trkpt>
      <trkpt lat="48.26998" lon="-0.37554">
        <ele>308</ele>
        <time>2011-09-02T14:10:59Z</time>
      </trkpt>
      <trkpt lat="48.27002" lon="-0.3756">
        <ele>308</ele>
        <time>2011-09-02T14:11:03Z</time>
      </trkpt>
      <trkpt lat="48.27007" lon="-0.37569">
        <ele>310.5</ele>
        <time>2011-09-02T14:11:09Z</time>
      </trkpt>
      <trkpt lat="48.2701" lon="-0.37574">
        <ele>311</ele>
        <time>2011-09-02T14:11:13Z</time>
      </trkpt>
      <trkpt lat="48.27017" lon="-0.3758">
        <ele>310.5</ele>
        <time>2011-09-02T14:11:21Z</time>
      </trkpt>
      <trkpt lat="48.27021" lon="-0.37583">
        <ele>311</ele>
        <time>2011-09-02T14:11:27Z</time>
      </trkpt>
      <trkpt lat="48.27029" lon="-0.37589">
        <ele>313</ele>
        <time>2011-09-02T14:11:35Z</time>
      </trkpt>
      <trkpt lat="48.27036" lon="-0.37594">
        <ele>314</ele>
        <time>2011-09-02T14:11:41Z</time>
      </trkpt>
      <trkpt lat="48.27043" lon="-0.37602">
        <ele>312</ele>
        <time>2011-09-02T14:11:53Z</time>
      </trkpt>
      <trkpt lat="48.27045" lon="-0.37605">
        <ele>312</ele>
        <time>2011-09-02T14:11:55Z</time>
      </trkpt>
      <trkpt lat="48.27044" lon="-0.37626">
        <ele>314</ele>
        <time>2011-09-02T14:12:07Z</time>
      </trkpt>
      <trkpt lat="48.27043" lon="-0.37643">
        <ele>310.5</ele>
        <time>2011-09-02T14:12:19Z</time>
      </trkpt>
      <trkpt lat="48.27039" lon="-0.37664">
        <ele>304</ele>
        <time>2011-09-02T14:12:27Z</time>
      </trkpt>
      <trkpt lat="48.27035" lon="-0.37666">
        <ele>306</ele>
        <time>2011-09-02T14:12:31Z</time>
      </trkpt>
      <trkpt lat="48.27032" lon="-0.37672">
        <ele>300</ele>
        <time>2011-09-02T14:12:47Z</time>
      </trkpt>
      <trkpt lat="48.27032" lon="-0.3768">
        <ele>300</ele>
        <time>2011-09-02T14:12:53Z</time>
      </trkpt>
      <trkpt lat="48.27031" lon="-0.37702">
        <ele>292</ele>
        <time>2011-09-02T14:13:17Z</time>
      </trkpt>
      <trkpt lat="48.27028" lon="-0.37714">
        <ele>292</ele>
        <time>2011-09-02T14:13:23Z</time>
      </trkpt>
      <trkpt lat="48.27027" lon="-0.3772">
        <ele>294</ele>
        <time>2011-09-02T14:13:27Z</time>
      </trkpt>
      <trkpt lat="48.27024" lon="-0.37735">
        <ele>297</ele>
        <time>2011-09-02T14:13:37Z</time>
      </trkpt>
      <trkpt lat="48.27022" lon="-0.37741">
        <ele>297</ele>
        <time>2011-09-02T14:13:41Z</time>
      </trkpt>
      <trkpt lat="48.27018" lon="-0.37746">
        <ele>299.5</ele>
        <time>2011-09-02T14:13:47Z</time>
      </trkpt>
      <trkpt lat="48.27018" lon="-0.37746">
        <ele>299.5</ele>
        <time>2011-09-02T14:14:03Z</time>
      </trkpt>
      <trkpt lat="48.27018" lon="-0.37746">
        <ele>299.5</ele>
        <time>2011-09-02T14:14:29Z</time>
      </trkpt>
      <trkpt lat="48.27018" lon="-0.37746">
        <ele>299.5</ele>
        <time>2011-09-02T14:14:45Z</time>
      </trkpt>
      <trkpt lat="48.27018" lon="-0.37746">
        <ele>299.5</ele>
        <time>2011-09-02T14:15:13Z</time>
      </trkpt>
      <trkpt lat="48.27018" lon="-0.37746">
        <ele>299.5</ele>
        <time>2011-09-02T14:15:29Z</time>
      </trkpt>
      <trkpt lat="48.27018" lon="-0.37746">
        <ele>299.5</ele>
        <time>2011-09-02T14:15:45Z</time>
      </trkpt>
      <trkpt lat="48.27018" lon="-0.37746">
        <ele>299.5</ele>
        <time>2011-09-02T14:16:05Z</time>
      </trkpt>
      <trkpt lat="48.27018" lon="-0.37746">
        <ele>299.5</ele>
        <time>2011-09-02T14:16:35Z</time>
      </trkpt>
      <trkpt lat="48.27018" lon="-0.37746">
        <ele>299.5</ele>
        <time>2011-09-02T14:16:53Z</time>
      </trkpt>
      <trkpt lat="48.27018" lon="-0.37746">
        <ele>299.5</ele>
        <time>2011-09-02T14:17:11Z</time>
      </trkpt>
      <trkpt lat="48.27018" lon="-0.37746">
        <ele>299.5</ele>
        <time>2011-09-02T14:17:29Z</time>
      </trkpt>
      <trkpt lat="48.27018" lon="-0.37746">
        <ele>299.5</ele>
        <time>2011-09-02T14:17:47Z</time>
      </trkpt>
      <trkpt lat="48.27018" lon="-0.37746">
        <ele>299.5</ele>
        <time>2011-09-02T14:18:05Z</time>
      </trkpt>
      <trkpt lat="48.27018" lon="-0.37746">
        <ele>299.5</ele>
        <time>2011-09-02T14:18:21Z</time>
      </trkpt>
      <trkpt lat="48.27018" lon="-0.37746">
        <ele>299.5</ele>
        <time>2011-09-02T14:18:37Z</time>
      </trkpt>
      <trkpt lat="48.27018" lon="-0.37746">
        <ele>299.5</ele>
        <time>2011-09-02T14:18:53Z</time>
      </trkpt>
      <trkpt lat="48.27018" lon="-0.37746">
        <ele>299.5</ele>
        <time>2011-09-02T14:19:09Z</time>
      </trkpt>
      <trkpt lat="48.27018" lon="-0.37746">
        <ele>299.5</ele>
        <time>2011-09-02T14:19:25Z</time>
      </trkpt>
      <trkpt lat="48.27018" lon="-0.37746">
        <ele>299.5</ele>
        <time>2011-09-02T14:19:41Z</time>
      </trkpt>
      <trkpt lat="48.27018" lon="-0.37746">
        <ele>299.5</ele>
        <time>2011-09-02T14:19:57Z</time>
      </trkpt>
      <trkpt lat="48.27018" lon="-0.37746">
        <ele>299.5</ele>
        <time>2011-09-02T14:20:13Z</time>
      </trkpt>
      <trkpt lat="48.27018" lon="-0.37746">
        <ele>299.5</ele>
        <time>2011-09-02T14:20:29Z</time>
      </trkpt>
      <trkpt lat="48.27018" lon="-0.37746">
        <ele>299.5</ele>
        <time>2011-09-02T14:20:45Z</time>
      </trkpt>
      <trkpt lat="48.27018" lon="-0.37746">
        <ele>299.5</ele>
        <time>2011-09-02T14:21:05Z</time>
      </trkpt>
      <trkpt lat="48.27018" lon="-0.37746">
        <ele>299.5</ele>
        <time>2011-09-02T14:21:21Z</time>
      </trkpt>
      <trkpt lat="48.27018" lon="-0.37746">
        <ele>299.5</ele>
        <time>2011-09-02T14:21:37Z</time>
      </trkpt>
      <trkpt lat="48.27018" lon="-0.37746">
        <ele>299.5</ele>
        <time>2011-09-02T14:22:03Z</time>
      </trkpt>
      <trkpt lat="48.27018" lon="-0.37746">
        <ele>299.5</ele>
        <time>2011-09-02T14:22:21Z</time>
      </trkpt>
      <trkpt lat="48.27018" lon="-0.37746">
        <ele>299.5</ele>
        <time>2011-09-02T14:22:39Z</time>
      </trkpt>
      <trkpt lat="48.27018" lon="-0.37746">
        <ele>299.5</ele>
        <time>2011-09-02T14:22:57Z</time>
      </trkpt>
      <trkpt lat="48.27018" lon="-0.37746">
        <ele>299.5</ele>
        <time>2011-09-02T14:23:15Z</time>
      </trkpt>
      <trkpt lat="48.27018" lon="-0.37746">
        <ele>299.5</ele>
        <time>2011-09-02T14:23:33Z</time>
      </trkpt>
      <trkpt lat="48.27018" lon="-0.37746">
        <ele>299.5</ele>
        <time>2011-09-02T14:23:49Z</time>
      </trkpt>
      <trkpt lat="48.27018" lon="-0.37746">
        <ele>299.5</ele>
        <time>2011-09-02T14:24:05Z</time>
      </trkpt>
      <trkpt lat="48.27018" lon="-0.37746">
        <ele>299.5</ele>
        <time>2011-09-02T14:24:21Z</time>
      </trkpt>
      <trkpt lat="48.27018" lon="-0.37746">
        <ele>299.5</ele>
        <time>2011-09-02T14:24:37Z</time>
      </trkpt>
      <trkpt lat="48.27018" lon="-0.37746">
        <ele>299.5</ele>
        <time>2011-09-02T14:24:53Z</time>
      </trkpt>
      <trkpt lat="48.27018" lon="-0.37746">
        <ele>299.5</ele>
        <time>2011-09-02T14:25:09Z</time>
      </trkpt>
      <trkpt lat="48.27018" lon="-0.37746">
        <ele>299.5</ele>
        <time>2011-09-02T14:25:25Z</time>
      </trkpt>
      <trkpt lat="48.27018" lon="-0.37746">
        <ele>299.5</ele>
        <time>2011-09-02T14:25:41Z</time>
      </trkpt>
      <trkpt lat="48.27018" lon="-0.37746">
        <ele>299.5</ele>
        <time>2011-09-02T14:25:57Z</time>
      </trkpt>
      <trkpt lat="48.27018" lon="-0.37746">
        <ele>299.5</ele>
        <time>2011-09-02T14:26:13Z</time>
      </trkpt>
      <trkpt lat="48.27018" lon="-0.37746">
        <ele>299.5</ele>
        <time>2011-09-02T14:26:29Z</time>
      </trkpt>
      <trkpt lat="48.27018" lon="-0.37746">
        <ele>299.5</ele>
        <time>2011-09-02T14:26:45Z</time>
      </trkpt>
      <trkpt lat="48.27018" lon="-0.37746">
        <ele>299.5</ele>
        <time>2011-09-02T14:27:01Z</time>
      </trkpt>
      <trkpt lat="48.27018" lon="-0.37746">
        <ele>299.5</ele>
        <time>2011-09-02T14:27:17Z</time>
      </trkpt>
      <trkpt lat="48.27018" lon="-0.37746">
        <ele>299.5</ele>
        <time>2011-09-02T14:27:45Z</time>
      </trkpt>
      <trkpt lat="48.27018" lon="-0.37746">
        <ele>299.5</ele>
        <time>2011-09-02T14:28:03Z</time>
      </trkpt>
      <trkpt lat="48.27018" lon="-0.37746">
        <ele>299.5</ele>
        <time>2011-09-02T14:28:21Z</time>
      </trkpt>
      <trkpt lat="48.27018" lon="-0.37746">
        <ele>299.5</ele>
        <time>2011-09-02T14:28:37Z</time>
      </trkpt>
      <trkpt lat="48.27018" lon="-0.37746">
        <ele>299.5</ele>
        <time>2011-09-02T14:28:53Z</time>
      </trkpt>
      <trkpt lat="48.27018" lon="-0.37746">
        <ele>299.5</ele>
        <time>2011-09-02T14:29:09Z</time>
      </trkpt>
      <trkpt lat="48.27018" lon="-0.37746">
        <ele>299.5</ele>
        <time>2011-09-02T14:29:25Z</time>
      </trkpt>
      <trkpt lat="48.27018" lon="-0.37746">
        <ele>299.5</ele>
        <time>2011-09-02T14:29:41Z</time>
      </trkpt>
      <trkpt lat="48.27018" lon="-0.37746">
        <ele>299.5</ele>
        <time>2011-09-02T14:29:57Z</time>
      </trkpt>
      <trkpt lat="48.27018" lon="-0.37746">
        <ele>299.5</ele>
        <time>2011-09-02T14:30:13Z</time>
      </trkpt>
      <trkpt lat="48.27018" lon="-0.37746">
        <ele>299.5</ele>
        <time>2011-09-02T14:30:29Z</time>
      </trkpt>
      <trkpt lat="48.27018" lon="-0.37746">
        <ele>299.5</ele>
        <time>2011-09-02T14:30:47Z</time>
      </trkpt>
      <trkpt lat="48.27018" lon="-0.37746">
        <ele>299.5</ele>
        <time>2011-09-02T14:31:03Z</time>
      </trkpt>
      <trkpt lat="48.27018" lon="-0.37746">
        <ele>299.5</ele>
        <time>2011-09-02T14:31:19Z</time>
      </trkpt>
      <trkpt lat="48.27018" lon="-0.37746">
        <ele>299.5</ele>
        <time>2011-09-02T14:31:35Z</time>
      </trkpt>
      <trkpt lat="48.27018" lon="-0.37746">
        <ele>299.5</ele>
        <time>2011-09-02T14:31:51Z</time>
      </trkpt>
      <trkpt lat="48.27018" lon="-0.37746">
        <ele>299.5</ele>
        <time>2011-09-02T14:32:07Z</time>
      </trkpt>
      <trkpt lat="48.27018" lon="-0.37746">
        <ele>299.5</ele>
        <time>2011-09-02T14:32:23Z</time>
      </trkpt>
      <trkpt lat="48.27018" lon="-0.37746">
        <ele>299.5</ele>
        <time>2011-09-02T14:32:41Z</time>
      </trkpt>
      <trkpt lat="48.27018" lon="-0.37746">
        <ele>299.5</ele>
        <time>2011-09-02T14:32:57Z</time>
      </trkpt>
      <trkpt lat="48.27018" lon="-0.37746">
        <ele>299.5</ele>
        <time>2011-09-02T14:33:13Z</time>
      </trkpt>
      <trkpt lat="48.27018" lon="-0.37746">
        <ele>299.5</ele>
        <time>2011-09-02T14:33:29Z</time>
      </trkpt>
      <trkpt lat="48.27018" lon="-0.37746">
        <ele>299.5</ele>
        <time>2011-09-02T14:33:45Z</time>
      </trkpt>
      <trkpt lat="48.27018" lon="-0.37746">
        <ele>299.5</ele>
        <time>2011-09-02T14:34:01Z</time>
      </trkpt>
      <trkpt lat="48.27018" lon="-0.37746">
        <ele>299.5</ele>
        <time>2011-09-02T14:34:17Z</time>
      </trkpt>
      <trkpt lat="48.27018" lon="-0.37746">
        <ele>299.5</ele>
        <time>2011-09-02T14:34:35Z</time>
      </trkpt>
      <trkpt lat="48.27018" lon="-0.37746">
        <ele>299.5</ele>
        <time>2011-09-02T14:34:51Z</time>
      </trkpt>
      <trkpt lat="48.27018" lon="-0.37746">
        <ele>299.5</ele>
        <time>2011-09-02T14:35:07Z</time>
      </trkpt>
      <trkpt lat="48.27018" lon="-0.37746">
        <ele>299.5</ele>
        <time>2011-09-02T14:35:23Z</time>
      </trkpt>
      <trkpt lat="48.27018" lon="-0.37746">
        <ele>299.5</ele>
        <time>2011-09-02T14:35:39Z</time>
      </trkpt>
      <trkpt lat="48.27018" lon="-0.37746">
        <ele>299.5</ele>
        <time>2011-09-02T14:35:55Z</time>
      </trkpt>
      <trkpt lat="48.27018" lon="-0.37746">
        <ele>299.5</ele>
        <time>2011-09-02T14:36:11Z</time>
      </trkpt>
      <trkpt lat="48.27018" lon="-0.37746">
        <ele>299.5</ele>
        <time>2011-09-02T14:36:27Z</time>
      </trkpt>
      <trkpt lat="48.27018" lon="-0.37746">
        <ele>299.5</ele>
        <time>2011-09-02T14:36:43Z</time>
      </trkpt>
      <trkpt lat="48.27018" lon="-0.37746">
        <ele>299.5</ele>
        <time>2011-09-02T14:36:59Z</time>
      </trkpt>
      <trkpt lat="48.27018" lon="-0.37746">
        <ele>299.5</ele>
        <time>2011-09-02T14:37:17Z</time>
      </trkpt>
      <trkpt lat="48.27018" lon="-0.37746">
        <ele>299.5</ele>
        <time>2011-09-02T14:37:33Z</time>
      </trkpt>
      <trkpt lat="48.27018" lon="-0.37746">
        <ele>299.5</ele>
        <time>2011-09-02T14:37:49Z</time>
      </trkpt>
      <trkpt lat="48.27018" lon="-0.37746">
        <ele>299.5</ele>
        <time>2011-09-02T14:38:17Z</time>
      </trkpt>
      <trkpt lat="48.27018" lon="-0.37746">
        <ele>299.5</ele>
        <time>2011-09-02T14:38:43Z</time>
      </trkpt>
      <trkpt lat="48.27018" lon="-0.37746">
        <ele>299.5</ele>
        <time>2011-09-02T14:39:01Z</time>
      </trkpt>
      <trkpt lat="48.27018" lon="-0.37746">
        <ele>299.5</ele>
        <time>2011-09-02T14:39:21Z</time>
      </trkpt>
      <trkpt lat="48.27018" lon="-0.37746">
        <ele>299.5</ele>
        <time>2011-09-02T14:39:37Z</time>
      </trkpt>
      <trkpt lat="48.27018" lon="-0.37746">
        <ele>299.5</ele>
        <time>2011-09-02T14:39:53Z</time>
      </trkpt>
      <trkpt lat="48.27018" lon="-0.37746">
        <ele>299.5</ele>
        <time>2011-09-02T14:40:13Z</time>
      </trkpt>
      <trkpt lat="48.27018" lon="-0.37746">
        <ele>299.5</ele>
        <time>2011-09-02T14:40:31Z</time>
      </trkpt>
      <trkpt lat="48.27018" lon="-0.37746">
        <ele>299.5</ele>
        <time>2011-09-02T14:40:49Z</time>
      </trkpt>
      <trkpt lat="48.27018" lon="-0.37746">
        <ele>299.5</ele>
        <time>2011-09-02T14:41:07Z</time>
      </trkpt>
      <trkpt lat="48.27018" lon="-0.37746">
        <ele>299.5</ele>
        <time>2011-09-02T14:41:25Z</time>
      </trkpt>
      <trkpt lat="48.27018" lon="-0.37746">
        <ele>299.5</ele>
        <time>2011-09-02T14:41:43Z</time>
      </trkpt>
      <trkpt lat="48.27018" lon="-0.37746">
        <ele>299.5</ele>
        <time>2011-09-02T14:42:17Z</time>
      </trkpt>
      <trkpt lat="48.27018" lon="-0.37746">
        <ele>299.5</ele>
        <time>2011-09-02T14:42:33Z</time>
      </trkpt>
      <trkpt lat="48.27018" lon="-0.37746">
        <ele>299.5</ele>
        <time>2011-09-02T14:42:49Z</time>
      </trkpt>
      <trkpt lat="48.27018" lon="-0.37746">
        <ele>299.5</ele>
        <time>2011-09-02T14:43:35Z</time>
      </trkpt>
      <trkpt lat="48.27018" lon="-0.37746">
        <ele>299.5</ele>
        <time>2011-09-02T14:43:53Z</time>
      </trkpt>
      <trkpt lat="48.27018" lon="-0.37746">
        <ele>299.5</ele>
        <time>2011-09-02T14:44:09Z</time>
      </trkpt>
      <trkpt lat="48.27018" lon="-0.37746">
        <ele>299.5</ele>
        <time>2011-09-02T14:44:25Z</time>
      </trkpt>
      <trkpt lat="48.27018" lon="-0.37746">
        <ele>299.5</ele>
        <time>2011-09-02T14:44:41Z</time>
      </trkpt>
      <trkpt lat="48.27018" lon="-0.37746">
        <ele>299.5</ele>
        <time>2011-09-02T14:44:57Z</time>
      </trkpt>
      <trkpt lat="48.27018" lon="-0.37746">
        <ele>299.5</ele>
        <time>2011-09-02T14:45:27Z</time>
      </trkpt>
      <trkpt lat="48.27018" lon="-0.37746">
        <ele>299.5</ele>
        <time>2011-09-02T14:45:45Z</time>
      </trkpt>
      <trkpt lat="48.27018" lon="-0.37746">
        <ele>299.5</ele>
        <time>2011-09-02T14:46:15Z</time>
      </trkpt>
      <trkpt lat="48.27018" lon="-0.37746">
        <ele>299.5</ele>
        <time>2011-09-02T14:46:44Z</time>
      </trkpt>
      <trkpt lat="48.27018" lon="-0.37746">
        <ele>299.5</ele>
        <time>2011-09-02T14:47:03Z</time>
      </trkpt>
      <trkpt lat="48.27018" lon="-0.37746">
        <ele>299.5</ele>
        <time>2011-09-02T14:47:19Z</time>
      </trkpt>
      <trkpt lat="48.27018" lon="-0.37746">
        <ele>299.5</ele>
        <time>2011-09-02T14:47:41Z</time>
      </trkpt>
      <trkpt lat="48.27018" lon="-0.37746">
        <ele>299.5</ele>
        <time>2011-09-02T14:47:57Z</time>
      </trkpt>
      <trkpt lat="48.27018" lon="-0.37746">
        <ele>299.5</ele>
        <time>2011-09-02T14:48:21Z</time>
      </trkpt>
      <trkpt lat="48.27018" lon="-0.37746">
        <ele>299.5</ele>
        <time>2011-09-02T14:48:39Z</time>
      </trkpt>
      <trkpt lat="48.27018" lon="-0.37746">
        <ele>299.5</ele>
        <time>2011-09-02T14:49:13Z</time>
      </trkpt>
      <trkpt lat="48.27018" lon="-0.37746">
        <ele>299.5</ele>
        <time>2011-09-02T14:50:23Z</time>
      </trkpt>
      <trkpt lat="48.27018" lon="-0.37746">
        <ele>299.5</ele>
        <time>2011-09-02T14:50:44Z</time>
      </trkpt>
      <trkpt lat="48.27018" lon="-0.37746">
        <ele>299.5</ele>
        <time>2011-09-02T14:51:03Z</time>
      </trkpt>
      <trkpt lat="48.27018" lon="-0.37746">
        <ele>299.5</ele>
        <time>2011-09-02T14:51:23Z</time>
      </trkpt>
      <trkpt lat="48.27018" lon="-0.37746">
        <ele>299.5</ele>
        <time>2011-09-02T14:51:43Z</time>
      </trkpt>
      <trkpt lat="48.27018" lon="-0.37746">
        <ele>299.5</ele>
        <time>2011-09-02T14:52:03Z</time>
      </trkpt>
      <trkpt lat="48.27018" lon="-0.37746">
        <ele>299.5</ele>
        <time>2011-09-02T14:52:21Z</time>
      </trkpt>
      <trkpt lat="48.27018" lon="-0.37746">
        <ele>299.5</ele>
        <time>2011-09-02T14:52:39Z</time>
      </trkpt>
      <trkpt lat="48.27018" lon="-0.37746">
        <ele>299.5</ele>
        <time>2011-09-02T14:52:59Z</time>
      </trkpt>
      <trkpt lat="48.27018" lon="-0.37746">
        <ele>299.5</ele>
        <time>2011-09-02T14:53:21Z</time>
      </trkpt>
      <trkpt lat="48.27018" lon="-0.37746">
        <ele>299.5</ele>
        <time>2011-09-02T14:53:39Z</time>
      </trkpt>
      <trkpt lat="48.27018" lon="-0.37746">
        <ele>299.5</ele>
        <time>2011-09-02T14:54:01Z</time>
      </trkpt>
      <trkpt lat="48.27018" lon="-0.37746">
        <ele>299.5</ele>
        <time>2011-09-02T14:54:21Z</time>
      </trkpt>
      <trkpt lat="48.27018" lon="-0.37746">
        <ele>299.5</ele>
        <time>2011-09-02T14:54:39Z</time>
      </trkpt>
      <trkpt lat="48.27018" lon="-0.37746">
        <ele>299.5</ele>
        <time>2011-09-02T14:54:59Z</time>
      </trkpt>
      <trkpt lat="48.27018" lon="-0.37746">
        <ele>299.5</ele>
        <time>2011-09-02T14:55:19Z</time>
      </trkpt>
      <trkpt lat="48.27018" lon="-0.37746">
        <ele>299.5</ele>
        <time>2011-09-02T14:55:39Z</time>
      </trkpt>
      <trkpt lat="48.27018" lon="-0.37746">
        <ele>299.5</ele>
        <time>2011-09-02T14:56:03Z</time>
      </trkpt>
      <trkpt lat="48.27018" lon="-0.37746">
        <ele>299.5</ele>
        <time>2011-09-02T14:56:21Z</time>
      </trkpt>
      <trkpt lat="48.27018" lon="-0.37746">
        <ele>299.5</ele>
        <time>2011-09-02T14:56:39Z</time>
      </trkpt>
      <trkpt lat="48.27018" lon="-0.37746">
        <ele>299.5</ele>
        <time>2011-09-02T14:57:01Z</time>
      </trkpt>
      <trkpt lat="48.27018" lon="-0.37746">
        <ele>299.5</ele>
        <time>2011-09-02T14:57:19Z</time>
      </trkpt>
      <trkpt lat="48.27018" lon="-0.37746">
        <ele>299.5</ele>
        <time>2011-09-02T14:57:37Z</time>
      </trkpt>
      <trkpt lat="48.27018" lon="-0.37746">
        <ele>299.5</ele>
        <time>2011-09-02T14:57:59Z</time>
      </trkpt>
      <trkpt lat="48.27018" lon="-0.37746">
        <ele>299.5</ele>
        <time>2011-09-02T14:58:17Z</time>
      </trkpt>
      <trkpt lat="48.27018" lon="-0.37746">
        <ele>299.5</ele>
        <time>2011-09-02T14:58:35Z</time>
      </trkpt>
      <trkpt lat="48.27018" lon="-0.37746">
        <ele>299.5</ele>
        <time>2011-09-02T14:58:55Z</time>
      </trkpt>
      <trkpt lat="48.27018" lon="-0.37746">
        <ele>299.5</ele>
        <time>2011-09-02T14:59:15Z</time>
      </trkpt>
      <trkpt lat="48.27018" lon="-0.37746">
        <ele>299.5</ele>
        <time>2011-09-02T14:59:37Z</time>
      </trkpt>
      <trkpt lat="48.27018" lon="-0.37746">
        <ele>299.5</ele>
        <time>2011-09-02T15:00:03Z</time>
      </trkpt>
      <trkpt lat="48.27018" lon="-0.37746">
        <ele>299.5</ele>
        <time>2011-09-02T15:00:25Z</time>
      </trkpt>
      <trkpt lat="48.27018" lon="-0.37746">
        <ele>299.5</ele>
        <time>2011-09-02T15:00:45Z</time>
      </trkpt>
      <trkpt lat="48.27018" lon="-0.37746">
        <ele>299.5</ele>
        <time>2011-09-02T15:01:05Z</time>
      </trkpt>
      <trkpt lat="48.27018" lon="-0.37746">
        <ele>299.5</ele>
        <time>2011-09-02T15:01:23Z</time>
      </trkpt>
      <trkpt lat="48.27015" lon="-0.37756">
        <ele>306</ele>
        <time>2011-09-02T15:01:27Z</time>
      </trkpt>
      <trkpt lat="48.27013" lon="-0.37763">
        <ele>304.5</ele>
        <time>2011-09-02T15:01:37Z</time>
      </trkpt>
      <trkpt lat="48.27004" lon="-0.3776">
        <ele>304</ele>
        <time>2011-09-02T15:01:41Z</time>
      </trkpt>
      <trkpt lat="48.27004" lon="-0.3776">
        <ele>304</ele>
        <time>2011-09-02T15:02:17Z</time>
      </trkpt>
      <trkpt lat="48.27004" lon="-0.3776">
        <ele>304</ele>
        <time>2011-09-02T15:02:35Z</time>
      </trkpt>
      <trkpt lat="48.27004" lon="-0.3776">
        <ele>304</ele>
        <time>2011-09-02T15:02:53Z</time>
      </trkpt>
      <trkpt lat="48.27004" lon="-0.3776">
        <ele>304</ele>
        <time>2011-09-02T15:03:15Z</time>
      </trkpt>
      <trkpt lat="48.27004" lon="-0.3776">
        <ele>304</ele>
        <time>2011-09-02T15:03:41Z</time>
      </trkpt>
      <trkpt lat="48.27004" lon="-0.3776">
        <ele>304</ele>
        <time>2011-09-02T15:04:03Z</time>
      </trkpt>
      <trkpt lat="48.27004" lon="-0.3776">
        <ele>304</ele>
        <time>2011-09-02T15:04:25Z</time>
      </trkpt>
      <trkpt lat="48.27004" lon="-0.3776">
        <ele>304</ele>
        <time>2011-09-02T15:04:45Z</time>
      </trkpt>
      <trkpt lat="48.27004" lon="-0.3776">
        <ele>304</ele>
        <time>2011-09-02T15:05:15Z</time>
      </trkpt>
      <trkpt lat="48.27004" lon="-0.3776">
        <ele>304</ele>
        <time>2011-09-02T15:05:33Z</time>
      </trkpt>
      <trkpt lat="48.27004" lon="-0.3776">
        <ele>304</ele>
        <time>2011-09-02T15:05:55Z</time>
      </trkpt>
      <trkpt lat="48.27004" lon="-0.3776">
        <ele>304</ele>
        <time>2011-09-02T15:06:31Z</time>
      </trkpt>
      <trkpt lat="48.27004" lon="-0.3776">
        <ele>304</ele>
        <time>2011-09-02T15:06:49Z</time>
      </trkpt>
      <trkpt lat="48.27004" lon="-0.3776">
        <ele>304</ele>
        <time>2011-09-02T15:07:11Z</time>
      </trkpt>
      <trkpt lat="48.27004" lon="-0.3776">
        <ele>304</ele>
        <time>2011-09-02T15:07:33Z</time>
      </trkpt>
      <trkpt lat="48.27004" lon="-0.3776">
        <ele>304</ele>
        <time>2011-09-02T15:07:55Z</time>
      </trkpt>
      <trkpt lat="48.27004" lon="-0.3776">
        <ele>304</ele>
        <time>2011-09-02T15:08:13Z</time>
      </trkpt>
      <trkpt lat="48.27004" lon="-0.3776">
        <ele>304</ele>
        <time>2011-09-02T15:08:43Z</time>
      </trkpt>
      <trkpt lat="48.27004" lon="-0.3776">
        <ele>304</ele>
        <time>2011-09-02T15:09:27Z</time>
      </trkpt>
      <trkpt lat="48.27004" lon="-0.3776">
        <ele>304</ele>
        <time>2011-09-02T15:09:45Z</time>
      </trkpt>
      <trkpt lat="48.27004" lon="-0.3776">
        <ele>304</ele>
        <time>2011-09-02T15:10:21Z</time>
      </trkpt>
      <trkpt lat="48.27004" lon="-0.3776">
        <ele>304</ele>
        <time>2011-09-02T15:10:43Z</time>
      </trkpt>
      <trkpt lat="48.27004" lon="-0.3776">
        <ele>304</ele>
        <time>2011-09-02T15:11:09Z</time>
      </trkpt>
      <trkpt lat="48.2701" lon="-0.37757">
        <ele>306</ele>
        <time>2011-09-02T15:11:11Z</time>
      </trkpt>
      <trkpt lat="48.27013" lon="-0.37756">
        <ele>306</ele>
        <time>2011-09-02T15:11:29Z</time>
      </trkpt>
      <trkpt lat="48.27013" lon="-0.37756">
        <ele>306</ele>
        <time>2011-09-02T15:12:05Z</time>
      </trkpt>
      <trkpt lat="48.27013" lon="-0.37756">
        <ele>306</ele>
        <time>2011-09-02T15:12:23Z</time>
      </trkpt>
      <trkpt lat="48.27013" lon="-0.37756">
        <ele>306</ele>
        <time>2011-09-02T15:12:45Z</time>
      </trkpt>
      <trkpt lat="48.27013" lon="-0.37756">
        <ele>306</ele>
        <time>2011-09-02T15:13:05Z</time>
      </trkpt>
      <trkpt lat="48.27006" lon="-0.37767">
        <ele>301</ele>
        <time>2011-09-02T15:13:07Z</time>
      </trkpt>
      <trkpt lat="48.27003" lon="-0.37771">
        <ele>302</ele>
        <time>2011-09-02T15:13:11Z</time>
      </trkpt>
      <trkpt lat="48.27004" lon="-0.37782">
        <ele>303.5</ele>
        <time>2011-09-02T15:13:19Z</time>
      </trkpt>
      <trkpt lat="48.27004" lon="-0.37782">
        <ele>303.5</ele>
        <time>2011-09-02T15:14:19Z</time>
      </trkpt>
      <trkpt lat="48.27004" lon="-0.37782">
        <ele>303.5</ele>
        <time>2011-09-02T15:14:39Z</time>
      </trkpt>
      <trkpt lat="48.27004" lon="-0.37782">
        <ele>303.5</ele>
        <time>2011-09-02T15:15:33Z</time>
      </trkpt>
      <trkpt lat="48.27004" lon="-0.37782">
        <ele>303.5</ele>
        <time>2011-09-02T15:15:53Z</time>
      </trkpt>
      <trkpt lat="48.27004" lon="-0.37782">
        <ele>303.5</ele>
        <time>2011-09-02T15:16:15Z</time>
      </trkpt>
      <trkpt lat="48.27004" lon="-0.37782">
        <ele>303.5</ele>
        <time>2011-09-02T15:16:41Z</time>
      </trkpt>
      <trkpt lat="48.27004" lon="-0.37782">
        <ele>303.5</ele>
        <time>2011-09-02T15:17:10Z</time>
      </trkpt>
      <trkpt lat="48.27004" lon="-0.37782">
        <ele>303.5</ele>
        <time>2011-09-02T15:17:50Z</time>
      </trkpt>
      <trkpt lat="48.27004" lon="-0.37782">
        <ele>303.5</ele>
        <time>2011-09-02T15:18:10Z</time>
      </trkpt>
      <trkpt lat="48.27004" lon="-0.37782">
        <ele>303.5</ele>
        <time>2011-09-02T15:18:30Z</time>
      </trkpt>
      <trkpt lat="48.27004" lon="-0.37782">
        <ele>303.5</ele>
        <time>2011-09-02T15:18:50Z</time>
      </trkpt>
      <trkpt lat="48.27004" lon="-0.37782">
        <ele>303.5</ele>
        <time>2011-09-02T15:19:22Z</time>
      </trkpt>
      <trkpt lat="48.27005" lon="-0.37758">
        <ele>307</ele>
        <time>2011-09-02T15:19:26Z</time>
      </trkpt>
      <trkpt lat="48.27007" lon="-0.37751">
        <ele>306.5</ele>
        <time>2011-09-02T15:19:40Z</time>
      </trkpt>
      <trkpt lat="48.27009" lon="-0.37742">
        <ele>305.5</ele>
        <time>2011-09-02T15:19:46Z</time>
      </trkpt>
      <trkpt lat="48.27009" lon="-0.37742">
        <ele>305.5</ele>
        <time>2011-09-02T15:20:26Z</time>
      </trkpt>
      <trkpt lat="48.27009" lon="-0.37742">
        <ele>305.5</ele>
        <time>2011-09-02T15:20:58Z</time>
      </trkpt>
      <trkpt lat="48.27009" lon="-0.37742">
        <ele>305.5</ele>
        <time>2011-09-02T15:21:32Z</time>
      </trkpt>
      <trkpt lat="48.27009" lon="-0.37742">
        <ele>305.5</ele>
        <time>2011-09-02T15:21:52Z</time>
      </trkpt>
      <trkpt lat="48.27009" lon="-0.37742">
        <ele>305.5</ele>
        <time>2011-09-02T15:22:14Z</time>
      </trkpt>
      <trkpt lat="48.27009" lon="-0.37742">
        <ele>305.5</ele>
        <time>2011-09-02T15:22:34Z</time>
      </trkpt>
      <trkpt lat="48.27009" lon="-0.37742">
        <ele>305.5</ele>
        <time>2011-09-02T15:23:00Z</time>
      </trkpt>
      <trkpt lat="48.27009" lon="-0.37742">
        <ele>305.5</ele>
        <time>2011-09-02T15:23:18Z</time>
      </trkpt>
      <trkpt lat="48.27009" lon="-0.37742">
        <ele>305.5</ele>
        <time>2011-09-02T15:24:34Z</time>
      </trkpt>
      <trkpt lat="48.27009" lon="-0.37742">
        <ele>305.5</ele>
        <time>2011-09-02T15:24:52Z</time>
      </trkpt>
      <trkpt lat="48.27009" lon="-0.37742">
        <ele>305.5</ele>
        <time>2011-09-02T15:25:10Z</time>
      </trkpt>
      <trkpt lat="48.27009" lon="-0.37742">
        <ele>305.5</ele>
        <time>2011-09-02T15:25:28Z</time>
      </trkpt>
      <trkpt lat="48.27009" lon="-0.37742">
        <ele>305.5</ele>
        <time>2011-09-02T15:26:00Z</time>
      </trkpt>
      <trkpt lat="48.27009" lon="-0.37742">
        <ele>305.5</ele>
        <time>2011-09-02T15:26:18Z</time>
      </trkpt>
      <trkpt lat="48.27009" lon="-0.37742">
        <ele>305.5</ele>
        <time>2011-09-02T15:26:36Z</time>
      </trkpt>
      <trkpt lat="48.27009" lon="-0.37742">
        <ele>305.5</ele>
        <time>2011-09-02T15:26:54Z</time>
      </trkpt>
      <trkpt lat="48.27009" lon="-0.37742">
        <ele>305.5</ele>
        <time>2011-09-02T15:27:12Z</time>
      </trkpt>
      <trkpt lat="48.27009" lon="-0.37742">
        <ele>305.5</ele>
        <time>2011-09-02T15:27:29Z</time>
      </trkpt>
      <trkpt lat="48.27009" lon="-0.37742">
        <ele>305.5</ele>
        <time>2011-09-02T15:27:55Z</time>
      </trkpt>
      <trkpt lat="48.27009" lon="-0.37742">
        <ele>305.5</ele>
        <time>2011-09-02T15:28:13Z</time>
      </trkpt>
      <trkpt lat="48.27009" lon="-0.37742">
        <ele>305.5</ele>
        <time>2011-09-02T15:28:31Z</time>
      </trkpt>
      <trkpt lat="48.27009" lon="-0.37742">
        <ele>305.5</ele>
        <time>2011-09-02T15:28:49Z</time>
      </trkpt>
      <trkpt lat="48.27009" lon="-0.37742">
        <ele>305.5</ele>
        <time>2011-09-02T15:29:09Z</time>
      </trkpt>
      <trkpt lat="48.27009" lon="-0.37742">
        <ele>305.5</ele>
        <time>2011-09-02T15:29:29Z</time>
      </trkpt>
      <trkpt lat="48.27009" lon="-0.37742">
        <ele>305.5</ele>
        <time>2011-09-02T15:29:47Z</time>
      </trkpt>
      <trkpt lat="48.27009" lon="-0.37742">
        <ele>305.5</ele>
        <time>2011-09-02T15:30:09Z</time>
      </trkpt>
      <trkpt lat="48.27009" lon="-0.37742">
        <ele>305.5</ele>
        <time>2011-09-02T15:30:27Z</time>
      </trkpt>
      <trkpt lat="48.27024" lon="-0.37742">
        <ele>299</ele>
        <time>2011-09-02T15:30:29Z</time>
      </trkpt>
      <trkpt lat="48.27024" lon="-0.37731">
        <ele>299</ele>
        <time>2011-09-02T15:30:39Z</time>
      </trkpt>
      <trkpt lat="48.2703" lon="-0.37727">
        <ele>301</ele>
        <time>2011-09-02T15:30:54Z</time>
      </trkpt>
      <trkpt lat="48.2703" lon="-0.37727">
        <ele>301</ele>
        <time>2011-09-02T15:31:10Z</time>
      </trkpt>
      <trkpt lat="48.2703" lon="-0.37727">
        <ele>301</ele>
        <time>2011-09-02T15:31:30Z</time>
      </trkpt>
      <trkpt lat="48.2703" lon="-0.37727">
        <ele>301</ele>
        <time>2011-09-02T15:31:46Z</time>
      </trkpt>
      <trkpt lat="48.2703" lon="-0.37727">
        <ele>301</ele>
        <time>2011-09-02T15:32:24Z</time>
      </trkpt>
      <trkpt lat="48.27033" lon="-0.37709">
        <ele>299</ele>
        <time>2011-09-02T15:32:28Z</time>
      </trkpt>
      <trkpt lat="48.27032" lon="-0.37701">
        <ele>300</ele>
        <time>2011-09-02T15:32:36Z</time>
      </trkpt>
      <trkpt lat="48.27032" lon="-0.37697">
        <ele>301.5</ele>
        <time>2011-09-02T15:32:44Z</time>
      </trkpt>
      <trkpt lat="48.27032" lon="-0.37697">
        <ele>301.5</ele>
        <time>2011-09-02T15:33:02Z</time>
      </trkpt>
      <trkpt lat="48.27032" lon="-0.37697">
        <ele>259.7</ele>
        <time>2011-09-02T15:33:49Z</time>
      </trkpt>
      <trkpt lat="48.27032" lon="-0.37697">
        <ele>259.7</ele>
        <time>2011-09-02T15:33:54Z</time>
      </trkpt>
      <trkpt lat="48.2703" lon="-0.37675">
        <ele>306.5</ele>
        <time>2011-09-02T15:34:08Z</time>
      </trkpt>
      <trkpt lat="48.27033" lon="-0.37667">
        <ele>302.5</ele>
        <time>2011-09-02T15:34:16Z</time>
      </trkpt>
      <trkpt lat="48.27035" lon="-0.3766">
        <ele>302</ele>
        <time>2011-09-02T15:34:22Z</time>
      </trkpt>
      <trkpt lat="48.27039" lon="-0.37642">
        <ele>307</ele>
        <time>2011-09-02T15:34:34Z</time>
      </trkpt>
      <trkpt lat="48.27042" lon="-0.37633">
        <ele>306.5</ele>
        <time>2011-09-02T15:34:42Z</time>
      </trkpt>
      <trkpt lat="48.27042" lon="-0.37633">
        <ele>306.5</ele>
        <time>2011-09-02T15:35:13Z</time>
      </trkpt>
      <trkpt lat="48.27042" lon="-0.37633">
        <ele>306.5</ele>
        <time>2011-09-02T15:35:37Z</time>
      </trkpt>
      <trkpt lat="48.27042" lon="-0.37633">
        <ele>306.5</ele>
        <time>2011-09-02T15:35:55Z</time>
      </trkpt>
      <trkpt lat="48.27042" lon="-0.37633">
        <ele>306.5</ele>
        <time>2011-09-02T15:36:11Z</time>
      </trkpt>
      <trkpt lat="48.27042" lon="-0.37633">
        <ele>306.5</ele>
        <time>2011-09-02T15:36:27Z</time>
      </trkpt>
      <trkpt lat="48.27042" lon="-0.37633">
        <ele>306.5</ele>
        <time>2011-09-02T15:36:43Z</time>
      </trkpt>
      <trkpt lat="48.27042" lon="-0.37625">
        <ele>312</ele>
        <time>2011-09-02T15:36:47Z</time>
      </trkpt>
      <trkpt lat="48.27046" lon="-0.37615">
        <ele>313.5</ele>
        <time>2011-09-02T15:36:55Z</time>
      </trkpt>
      <trkpt lat="48.27048" lon="-0.37607">
        <ele>313.5</ele>
        <time>2011-09-02T15:37:01Z</time>
      </trkpt>
      <trkpt lat="48.27043" lon="-0.37602">
        <ele>311</ele>
        <time>2011-09-02T15:37:07Z</time>
      </trkpt>
      <trkpt lat="48.27032" lon="-0.376">
        <ele>317</ele>
        <time>2011-09-02T15:37:17Z</time>
      </trkpt>
      <trkpt lat="48.27027" lon="-0.37599">
        <ele>317</ele>
        <time>2011-09-02T15:37:21Z</time>
      </trkpt>
      <trkpt lat="48.27021" lon="-0.37595">
        <ele>319.5</ele>
        <time>2011-09-02T15:37:31Z</time>
      </trkpt>
      <trkpt lat="48.27011" lon="-0.3759">
        <ele>318</ele>
        <time>2011-09-02T15:37:41Z</time>
      </trkpt>
      <trkpt lat="48.27004" lon="-0.37587">
        <ele>318.5</ele>
        <time>2011-09-02T15:37:45Z</time>
      </trkpt>
      <trkpt lat="48.26999" lon="-0.37577">
        <ele>314.5</ele>
        <time>2011-09-02T15:37:51Z</time>
      </trkpt>
      <trkpt lat="48.26996" lon="-0.3757">
        <ele>309.5</ele>
        <time>2011-09-02T15:37:57Z</time>
      </trkpt>
      <trkpt lat="48.26992" lon="-0.37565">
        <ele>307</ele>
        <time>2011-09-02T15:38:01Z</time>
      </trkpt>
      <trkpt lat="48.26985" lon="-0.37561">
        <ele>307.5</ele>
        <time>2011-09-02T15:38:07Z</time>
      </trkpt>
      <trkpt lat="48.26981" lon="-0.37553">
        <ele>308</ele>
        <time>2011-09-02T15:38:11Z</time>
      </trkpt>
      <trkpt lat="48.26978" lon="-0.37547">
        <ele>306.5</ele>
        <time>2011-09-02T15:38:15Z</time>
      </trkpt>
      <trkpt lat="48.26977" lon="-0.37544">
        <ele>305.5</ele>
        <time>2011-09-02T15:38:17Z</time>
      </trkpt>
      <trkpt lat="48.26973" lon="-0.37535">
        <ele>303</ele>
        <time>2011-09-02T15:38:23Z</time>
      </trkpt>
      <trkpt lat="48.26973" lon="-0.37535">
        <ele>303</ele>
        <time>2011-09-02T15:38:49Z</time>
      </trkpt>
      <trkpt lat="48.26973" lon="-0.37535">
        <ele>303</ele>
        <time>2011-09-02T15:39:11Z</time>
      </trkpt>
      <trkpt lat="48.26973" lon="-0.37535">
        <ele>303</ele>
        <time>2011-09-02T15:39:33Z</time>
      </trkpt>
      <trkpt lat="48.26969" lon="-0.37523">
        <ele>304</ele>
        <time>2011-09-02T15:39:39Z</time>
      </trkpt>
      <trkpt lat="48.26975" lon="-0.37513">
        <ele>303.5</ele>
        <time>2011-09-02T15:39:47Z</time>
      </trkpt>
      <trkpt lat="48.26981" lon="-0.37501">
        <ele>301.5</ele>
        <time>2011-09-02T15:39:59Z</time>
      </trkpt>
      <trkpt lat="48.26984" lon="-0.37497">
        <ele>302</ele>
        <time>2011-09-02T15:40:03Z</time>
      </trkpt>
      <trkpt lat="48.26992" lon="-0.37481">
        <ele>300</ele>
        <time>2011-09-02T15:40:11Z</time>
      </trkpt>
      <trkpt lat="48.26991" lon="-0.37472">
        <ele>299.5</ele>
        <time>2011-09-02T15:40:15Z</time>
      </trkpt>
      <trkpt lat="48.26985" lon="-0.37458">
        <ele>299</ele>
        <time>2011-09-02T15:40:25Z</time>
      </trkpt>
      <trkpt lat="48.2698" lon="-0.37434">
        <ele>297.5</ele>
        <time>2011-09-02T15:40:41Z</time>
      </trkpt>
      <trkpt lat="48.26965" lon="-0.37417">
        <ele>299</ele>
        <time>2011-09-02T15:40:49Z</time>
      </trkpt>
      <trkpt lat="48.26958" lon="-0.37408">
        <ele>299.5</ele>
        <time>2011-09-02T15:40:55Z</time>
      </trkpt>
      <trkpt lat="48.26953" lon="-0.37394">
        <ele>298</ele>
        <time>2011-09-02T15:41:03Z</time>
      </trkpt>
      <trkpt lat="48.26947" lon="-0.37386">
        <ele>299</ele>
        <time>2011-09-02T15:41:09Z</time>
      </trkpt>
      <trkpt lat="48.26944" lon="-0.3738">
        <ele>297.5</ele>
        <time>2011-09-02T15:41:13Z</time>
      </trkpt>
      <trkpt lat="48.2694" lon="-0.37366">
        <ele>295.5</ele>
        <time>2011-09-02T15:41:25Z</time>
      </trkpt>
      <trkpt lat="48.26942" lon="-0.37351">
        <ele>298.5</ele>
        <time>2011-09-02T15:41:47Z</time>
      </trkpt>
      <trkpt lat="48.26953" lon="-0.37339">
        <ele>299.5</ele>
        <time>2011-09-02T15:41:57Z</time>
      </trkpt>
      <trkpt lat="48.26956" lon="-0.37334">
        <ele>296</ele>
        <time>2011-09-02T15:42:01Z</time>
      </trkpt>
      <trkpt lat="48.26968" lon="-0.37308">
        <ele>292</ele>
        <time>2011-09-02T15:42:21Z</time>
      </trkpt>
      <trkpt lat="48.2697" lon="-0.373">
        <ele>293</ele>
        <time>2011-09-02T15:42:27Z</time>
      </trkpt>
      <trkpt lat="48.26972" lon="-0.37276">
        <ele>294.5</ele>
        <time>2011-09-02T15:42:39Z</time>
      </trkpt>
      <trkpt lat="48.2697" lon="-0.37261">
        <ele>293</ele>
        <time>2011-09-02T15:42:47Z</time>
      </trkpt>
      <trkpt lat="48.26962" lon="-0.37247">
        <ele>293.5</ele>
        <time>2011-09-02T15:43:00Z</time>
      </trkpt>
      <trkpt lat="48.26947" lon="-0.37232">
        <ele>296</ele>
        <time>2011-09-02T15:43:12Z</time>
      </trkpt>
      <trkpt lat="48.26941" lon="-0.37218">
        <ele>295</ele>
        <time>2011-09-02T15:43:20Z</time>
      </trkpt>
      <trkpt lat="48.26935" lon="-0.37207">
        <ele>293.5</ele>
        <time>2011-09-02T15:43:26Z</time>
      </trkpt>
      <trkpt lat="48.26926" lon="-0.37196">
        <ele>293</ele>
        <time>2011-09-02T15:43:36Z</time>
      </trkpt>
      <trkpt lat="48.26924" lon="-0.37189">
        <ele>292.5</ele>
        <time>2011-09-02T15:43:40Z</time>
      </trkpt>
      <trkpt lat="48.26924" lon="-0.3718">
        <ele>292</ele>
        <time>2011-09-02T15:43:48Z</time>
      </trkpt>
      <trkpt lat="48.26922" lon="-0.3717">
        <ele>292</ele>
        <time>2011-09-02T15:44:02Z</time>
      </trkpt>
      <trkpt lat="48.26917" lon="-0.37159">
        <ele>294.5</ele>
        <time>2011-09-02T15:44:10Z</time>
      </trkpt>
      <trkpt lat="48.26914" lon="-0.37152">
        <ele>295</ele>
        <time>2011-09-02T15:44:16Z</time>
      </trkpt>
      <trkpt lat="48.26911" lon="-0.37148">
        <ele>296</ele>
        <time>2011-09-02T15:44:18Z</time>
      </trkpt>
      <trkpt lat="48.26907" lon="-0.37132">
        <ele>291</ele>
        <time>2011-09-02T15:44:32Z</time>
      </trkpt>
      <trkpt lat="48.26902" lon="-0.37105">
        <ele>289</ele>
        <time>2011-09-02T15:44:48Z</time>
      </trkpt>
      <trkpt lat="48.26909" lon="-0.37088">
        <ele>288.5</ele>
        <time>2011-09-02T15:45:06Z</time>
      </trkpt>
      <trkpt lat="48.26907" lon="-0.37074">
        <ele>288.5</ele>
        <time>2011-09-02T15:45:10Z</time>
      </trkpt>
      <trkpt lat="48.26909" lon="-0.3705">
        <ele>286.5</ele>
        <time>2011-09-02T15:45:22Z</time>
      </trkpt>
      <trkpt lat="48.26911" lon="-0.37043">
        <ele>284.5</ele>
        <time>2011-09-02T15:45:30Z</time>
      </trkpt>
      <trkpt lat="48.26917" lon="-0.37023">
        <ele>286</ele>
        <time>2011-09-02T15:45:40Z</time>
      </trkpt>
      <trkpt lat="48.26917" lon="-0.37015">
        <ele>286</ele>
        <time>2011-09-02T15:45:46Z</time>
      </trkpt>
      <trkpt lat="48.2692" lon="-0.37004">
        <ele>286</ele>
        <time>2011-09-02T15:45:50Z</time>
      </trkpt>
      <trkpt lat="48.26922" lon="-0.36995">
        <ele>286</ele>
        <time>2011-09-02T15:45:56Z</time>
      </trkpt>
      <trkpt lat="48.2692" lon="-0.36963">
        <ele>286.5</ele>
        <time>2011-09-02T15:46:08Z</time>
      </trkpt>
      <trkpt lat="48.26917" lon="-0.36952">
        <ele>287</ele>
        <time>2011-09-02T15:46:16Z</time>
      </trkpt>
      <trkpt lat="48.26917" lon="-0.36932">
        <ele>284.5</ele>
        <time>2011-09-02T15:46:27Z</time>
      </trkpt>
      <trkpt lat="48.26916" lon="-0.36906">
        <ele>282</ele>
        <time>2011-09-02T15:46:41Z</time>
      </trkpt>
      <trkpt lat="48.26913" lon="-0.36887">
        <ele>285</ele>
        <time>2011-09-02T15:46:49Z</time>
      </trkpt>
      <trkpt lat="48.26912" lon="-0.36881">
        <ele>284</ele>
        <time>2011-09-02T15:46:53Z</time>
      </trkpt>
      <trkpt lat="48.26915" lon="-0.36869">
        <ele>282.5</ele>
        <time>2011-09-02T15:47:01Z</time>
      </trkpt>
      <trkpt lat="48.26916" lon="-0.36847">
        <ele>285</ele>
        <time>2011-09-02T15:47:11Z</time>
      </trkpt>
      <trkpt lat="48.2691" lon="-0.36844">
        <ele>286</ele>
        <time>2011-09-02T15:47:15Z</time>
      </trkpt>
      <trkpt lat="48.26896" lon="-0.36838">
        <ele>287.5</ele>
        <time>2011-09-02T15:47:23Z</time>
      </trkpt>
      <trkpt lat="48.26889" lon="-0.36832">
        <ele>287</ele>
        <time>2011-09-02T15:47:27Z</time>
      </trkpt>
      <trkpt lat="48.26881" lon="-0.36821">
        <ele>286.5</ele>
        <time>2011-09-02T15:47:35Z</time>
      </trkpt>
      <trkpt lat="48.26867" lon="-0.3681">
        <ele>287.5</ele>
        <time>2011-09-02T15:47:45Z</time>
      </trkpt>
      <trkpt lat="48.2687" lon="-0.36796">
        <ele>281.5</ele>
        <time>2011-09-02T15:47:57Z</time>
      </trkpt>
      <trkpt lat="48.26867" lon="-0.36788">
        <ele>281.5</ele>
        <time>2011-09-02T15:48:09Z</time>
      </trkpt>
      <trkpt lat="48.26853" lon="-0.36784">
        <ele>283.5</ele>
        <time>2011-09-02T15:48:15Z</time>
      </trkpt>
      <trkpt lat="48.26844" lon="-0.36782">
        <ele>284.5</ele>
        <time>2011-09-02T15:48:19Z</time>
      </trkpt>
      <trkpt lat="48.26841" lon="-0.36766">
        <ele>283.5</ele>
        <time>2011-09-02T15:48:27Z</time>
      </trkpt>
      <trkpt lat="48.26844" lon="-0.36752">
        <ele>285</ele>
        <time>2011-09-02T15:48:39Z</time>
      </trkpt>
      <trkpt lat="48.26842" lon="-0.36735">
        <ele>287</ele>
        <time>2011-09-02T15:48:49Z</time>
      </trkpt>
      <trkpt lat="48.26842" lon="-0.36735">
        <ele>287</ele>
        <time>2011-09-02T15:49:37Z</time>
      </trkpt>
      <trkpt lat="48.26842" lon="-0.36735">
        <ele>287</ele>
        <time>2011-09-02T15:49:55Z</time>
      </trkpt>
      <trkpt lat="48.26838" lon="-0.36726">
        <ele>284.5</ele>
        <time>2011-09-02T15:50:01Z</time>
      </trkpt>
      <trkpt lat="48.26841" lon="-0.36717">
        <ele>284</ele>
        <time>2011-09-02T15:50:19Z</time>
      </trkpt>
      <trkpt lat="48.26843" lon="-0.3671">
        <ele>285</ele>
        <time>2011-09-02T15:50:25Z</time>
      </trkpt>
      <trkpt lat="48.26841" lon="-0.36703">
        <ele>285</ele>
        <time>2011-09-02T15:50:27Z</time>
      </trkpt>
      <trkpt lat="48.2684" lon="-0.36699">
        <ele>286.5</ele>
        <time>2011-09-02T15:50:29Z</time>
      </trkpt>
      <trkpt lat="48.26834" lon="-0.36686">
        <ele>290</ele>
        <time>2011-09-02T15:50:39Z</time>
      </trkpt>
      <trkpt lat="48.26827" lon="-0.36675">
        <ele>288</ele>
        <time>2011-09-02T15:50:47Z</time>
      </trkpt>
      <trkpt lat="48.26827" lon="-0.36663">
        <ele>283</ele>
        <time>2011-09-02T15:50:57Z</time>
      </trkpt>
      <trkpt lat="48.26828" lon="-0.36648">
        <ele>288.5</ele>
        <time>2011-09-02T15:51:17Z</time>
      </trkpt>
      <trkpt lat="48.2683" lon="-0.36641">
        <ele>287</ele>
        <time>2011-09-02T15:51:23Z</time>
      </trkpt>
      <trkpt lat="48.26832" lon="-0.36632">
        <ele>284</ele>
        <time>2011-09-02T15:51:31Z</time>
      </trkpt>
      <trkpt lat="48.26832" lon="-0.36622">
        <ele>282.5</ele>
        <time>2011-09-02T15:51:37Z</time>
      </trkpt>
      <trkpt lat="48.26831" lon="-0.36611">
        <ele>282</ele>
        <time>2011-09-02T15:51:43Z</time>
      </trkpt>
      <trkpt lat="48.2683" lon="-0.36604">
        <ele>281</ele>
        <time>2011-09-02T15:51:47Z</time>
      </trkpt>
      <trkpt lat="48.26831" lon="-0.3659">
        <ele>279</ele>
        <time>2011-09-02T15:52:08Z</time>
      </trkpt>
      <trkpt lat="48.26845" lon="-0.36564">
        <ele>272</ele>
        <time>2011-09-02T15:52:20Z</time>
      </trkpt>
      <trkpt lat="48.26847" lon="-0.36556">
        <ele>274</ele>
        <time>2011-09-02T15:52:25Z</time>
      </trkpt>
      <trkpt lat="48.26851" lon="-0.36546">
        <ele>274.5</ele>
        <time>2011-09-02T15:52:30Z</time>
      </trkpt>
      <trkpt lat="48.26853" lon="-0.36542">
        <ele>274.5</ele>
        <time>2011-09-02T15:52:32Z</time>
      </trkpt>
      <trkpt lat="48.26854" lon="-0.36538">
        <ele>276</ele>
        <time>2011-09-02T15:52:42Z</time>
      </trkpt>
      <trkpt lat="48.26858" lon="-0.36522">
        <ele>275</ele>
        <time>2011-09-02T15:52:54Z</time>
      </trkpt>
      <trkpt lat="48.26859" lon="-0.36513">
        <ele>275</ele>
        <time>2011-09-02T15:52:58Z</time>
      </trkpt>
      <trkpt lat="48.26861" lon="-0.36499">
        <ele>275</ele>
        <time>2011-09-02T15:53:07Z</time>
      </trkpt>
      <trkpt lat="48.26857" lon="-0.36492">
        <ele>276</ele>
        <time>2011-09-02T15:53:12Z</time>
      </trkpt>
      <trkpt lat="48.2685" lon="-0.36479">
        <ele>275.5</ele>
        <time>2011-09-02T15:53:20Z</time>
      </trkpt>
      <trkpt lat="48.26846" lon="-0.36471">
        <ele>276</ele>
        <time>2011-09-02T15:53:28Z</time>
      </trkpt>
      <trkpt lat="48.26841" lon="-0.36459">
        <ele>275</ele>
        <time>2011-09-02T15:53:34Z</time>
      </trkpt>
      <trkpt lat="48.26838" lon="-0.36453">
        <ele>275</ele>
        <time>2011-09-02T15:53:38Z</time>
      </trkpt>
      <trkpt lat="48.26833" lon="-0.36451">
        <ele>275</ele>
        <time>2011-09-02T15:53:43Z</time>
      </trkpt>
      <trkpt lat="48.26826" lon="-0.36447">
        <ele>274.5</ele>
        <time>2011-09-02T15:53:48Z</time>
      </trkpt>
      <trkpt lat="48.2682" lon="-0.36441">
        <ele>274</ele>
        <time>2011-09-02T15:53:54Z</time>
      </trkpt>
      <trkpt lat="48.26813" lon="-0.36438">
        <ele>274</ele>
        <time>2011-09-02T15:54:00Z</time>
      </trkpt>
      <trkpt lat="48.26804" lon="-0.36438">
        <ele>275</ele>
        <time>2011-09-02T15:54:06Z</time>
      </trkpt>
      <trkpt lat="48.26801" lon="-0.36438">
        <ele>275</ele>
        <time>2011-09-02T15:54:08Z</time>
      </trkpt>
      <trkpt lat="48.2679" lon="-0.36434">
        <ele>277</ele>
        <time>2011-09-02T15:54:18Z</time>
      </trkpt>
      <trkpt lat="48.2678" lon="-0.36435">
        <ele>280</ele>
        <time>2011-09-02T15:54:26Z</time>
      </trkpt>
      <trkpt lat="48.26772" lon="-0.36436">
        <ele>281</ele>
        <time>2011-09-02T15:54:30Z</time>
      </trkpt>
      <trkpt lat="48.26767" lon="-0.36437">
        <ele>281.5</ele>
        <time>2011-09-02T15:54:32Z</time>
      </trkpt>
      <trkpt lat="48.2676" lon="-0.36434">
        <ele>282.5</ele>
        <time>2011-09-02T15:54:40Z</time>
      </trkpt>
      <trkpt lat="48.26753" lon="-0.36436">
        <ele>284</ele>
        <time>2011-09-02T15:54:44Z</time>
      </trkpt>
      <trkpt lat="48.26746" lon="-0.36436">
        <ele>282.5</ele>
        <time>2011-09-02T15:54:48Z</time>
      </trkpt>
      <trkpt lat="48.26739" lon="-0.36433">
        <ele>283</ele>
        <time>2011-09-02T15:54:54Z</time>
      </trkpt>
      <trkpt lat="48.26732" lon="-0.36427">
        <ele>282</ele>
        <time>2011-09-02T15:55:02Z</time>
      </trkpt>
      <trkpt lat="48.26728" lon="-0.36423">
        <ele>283.5</ele>
        <time>2011-09-02T15:55:06Z</time>
      </trkpt>
      <trkpt lat="48.26728" lon="-0.36423">
        <ele>283.5</ele>
        <time>2011-09-02T15:55:22Z</time>
      </trkpt>
      <trkpt lat="48.26728" lon="-0.36423">
        <ele>283.5</ele>
        <time>2011-09-02T15:55:56Z</time>
      </trkpt>
      <trkpt lat="48.2672" lon="-0.36403">
        <ele>286</ele>
        <time>2011-09-02T15:56:00Z</time>
      </trkpt>
      <trkpt lat="48.26714" lon="-0.36405">
        <ele>286</ele>
        <time>2011-09-02T15:56:04Z</time>
      </trkpt>
      <trkpt lat="48.26708" lon="-0.36406">
        <ele>285.5</ele>
        <time>2011-09-02T15:56:12Z</time>
      </trkpt>
      <trkpt lat="48.26698" lon="-0.364">
        <ele>282.5</ele>
        <time>2011-09-02T15:56:22Z</time>
      </trkpt>
      <trkpt lat="48.26693" lon="-0.36399">
        <ele>281</ele>
        <time>2011-09-02T15:56:28Z</time>
      </trkpt>
      <trkpt lat="48.2668" lon="-0.36396">
        <ele>281.5</ele>
        <time>2011-09-02T15:56:44Z</time>
      </trkpt>
      <trkpt lat="48.2667" lon="-0.3639">
        <ele>285</ele>
        <time>2011-09-02T15:56:50Z</time>
      </trkpt>
      <trkpt lat="48.26665" lon="-0.36384">
        <ele>285.5</ele>
        <time>2011-09-02T15:56:56Z</time>
      </trkpt>
      <trkpt lat="48.2666" lon="-0.36374">
        <ele>285</ele>
        <time>2011-09-02T15:57:04Z</time>
      </trkpt>
      <trkpt lat="48.26653" lon="-0.36362">
        <ele>285</ele>
        <time>2011-09-02T15:57:10Z</time>
      </trkpt>
      <trkpt lat="48.26646" lon="-0.36352">
        <ele>288</ele>
        <time>2011-09-02T15:57:22Z</time>
      </trkpt>
      <trkpt lat="48.26637" lon="-0.36336">
        <ele>286.5</ele>
        <time>2011-09-02T15:57:34Z</time>
      </trkpt>
      <trkpt lat="48.26626" lon="-0.36326">
        <ele>287</ele>
        <time>2011-09-02T15:57:50Z</time>
      </trkpt>
      <trkpt lat="48.26621" lon="-0.36317">
        <ele>293</ele>
        <time>2011-09-02T15:57:54Z</time>
      </trkpt>
      <trkpt lat="48.26614" lon="-0.363">
        <ele>296</ele>
        <time>2011-09-02T15:58:06Z</time>
      </trkpt>
      <trkpt lat="48.26608" lon="-0.36291">
        <ele>286</ele>
        <time>2011-09-02T15:58:18Z</time>
      </trkpt>
      <trkpt lat="48.26599" lon="-0.36273">
        <ele>286.5</ele>
        <time>2011-09-02T15:58:28Z</time>
      </trkpt>
      <trkpt lat="48.26586" lon="-0.36252">
        <ele>286</ele>
        <time>2011-09-02T15:58:42Z</time>
      </trkpt>
      <trkpt lat="48.26576" lon="-0.36233">
        <ele>281.5</ele>
        <time>2011-09-02T15:58:56Z</time>
      </trkpt>
      <trkpt lat="48.26569" lon="-0.36222">
        <ele>279</ele>
        <time>2011-09-02T15:59:06Z</time>
      </trkpt>
      <trkpt lat="48.26561" lon="-0.36208">
        <ele>275.5</ele>
        <time>2011-09-02T15:59:22Z</time>
      </trkpt>
      <trkpt lat="48.26559" lon="-0.36201">
        <ele>275</ele>
        <time>2011-09-02T15:59:26Z</time>
      </trkpt>
      <trkpt lat="48.26558" lon="-0.36197">
        <ele>275</ele>
        <time>2011-09-02T15:59:28Z</time>
      </trkpt>
      <trkpt lat="48.26552" lon="-0.36181">
        <ele>275</ele>
        <time>2011-09-02T15:59:38Z</time>
      </trkpt>
      <trkpt lat="48.26565" lon="-0.36172">
        <ele>276.5</ele>
        <time>2011-09-02T15:59:42Z</time>
      </trkpt>
      <trkpt lat="48.26573" lon="-0.36168">
        <ele>276.5</ele>
        <time>2011-09-02T15:59:44Z</time>
      </trkpt>
      <trkpt lat="48.26551" lon="-0.36157">
        <ele>277.5</ele>
        <time>2011-09-02T15:59:52Z</time>
      </trkpt>
      <trkpt lat="48.26543" lon="-0.36158">
        <ele>280</ele>
        <time>2011-09-02T15:59:56Z</time>
      </trkpt>
      <trkpt lat="48.26532" lon="-0.36155">
        <ele>280</ele>
        <time>2011-09-02T16:00:04Z</time>
      </trkpt>
      <trkpt lat="48.26518" lon="-0.36139">
        <ele>280.5</ele>
        <time>2011-09-02T16:00:16Z</time>
      </trkpt>
      <trkpt lat="48.26513" lon="-0.36133">
        <ele>274</ele>
        <time>2011-09-02T16:00:26Z</time>
      </trkpt>
      <trkpt lat="48.26496" lon="-0.36116">
        <ele>281</ele>
        <time>2011-09-02T16:00:38Z</time>
      </trkpt>
      <trkpt lat="48.26492" lon="-0.36113">
        <ele>281</ele>
        <time>2011-09-02T16:00:40Z</time>
      </trkpt>
      <trkpt lat="48.26487" lon="-0.36097">
        <ele>282</ele>
        <time>2011-09-02T16:00:50Z</time>
      </trkpt>
      <trkpt lat="48.26481" lon="-0.36096">
        <ele>280</ele>
        <time>2011-09-02T16:01:00Z</time>
      </trkpt>
      <trkpt lat="48.26481" lon="-0.36096">
        <ele>280</ele>
        <time>2011-09-02T16:01:36Z</time>
      </trkpt>
      <trkpt lat="48.26481" lon="-0.36085">
        <ele>289</ele>
        <time>2011-09-02T16:01:40Z</time>
      </trkpt>
      <trkpt lat="48.26486" lon="-0.36081">
        <ele>288.5</ele>
        <time>2011-09-02T16:01:54Z</time>
      </trkpt>
      <trkpt lat="48.26479" lon="-0.36067">
        <ele>288</ele>
        <time>2011-09-02T16:02:04Z</time>
      </trkpt>
      <trkpt lat="48.26474" lon="-0.36062">
        <ele>289.5</ele>
        <time>2011-09-02T16:02:16Z</time>
      </trkpt>
      <trkpt lat="48.26471" lon="-0.3605">
        <ele>290</ele>
        <time>2011-09-02T16:02:22Z</time>
      </trkpt>
      <trkpt lat="48.2647" lon="-0.36043">
        <ele>290</ele>
        <time>2011-09-02T16:02:24Z</time>
      </trkpt>
      <trkpt lat="48.26469" lon="-0.3603">
        <ele>293.5</ele>
        <time>2011-09-02T16:02:30Z</time>
      </trkpt>
      <trkpt lat="48.26469" lon="-0.3603">
        <ele>293.5</ele>
        <time>2011-09-02T16:02:48Z</time>
      </trkpt>
      <trkpt lat="48.26466" lon="-0.36035">
        <ele>296.5</ele>
        <time>2011-09-02T16:03:00Z</time>
      </trkpt>
      <trkpt lat="48.26453" lon="-0.36035">
        <ele>301.5</ele>
        <time>2011-09-02T16:03:08Z</time>
      </trkpt>
      <trkpt lat="48.26448" lon="-0.3603">
        <ele>301.5</ele>
        <time>2011-09-02T16:03:14Z</time>
      </trkpt>
      <trkpt lat="48.26444" lon="-0.36023">
        <ele>300.5</ele>
        <time>2011-09-02T16:03:20Z</time>
      </trkpt>
      <trkpt lat="48.26433" lon="-0.36018">
        <ele>301</ele>
        <time>2011-09-02T16:03:28Z</time>
      </trkpt>
      <trkpt lat="48.26427" lon="-0.36019">
        <ele>303</ele>
        <time>2011-09-02T16:03:30Z</time>
      </trkpt>
      <trkpt lat="48.26423" lon="-0.36014">
        <ele>303</ele>
        <time>2011-09-02T16:03:34Z</time>
      </trkpt>
      <trkpt lat="48.26416" lon="-0.36004">
        <ele>300.5</ele>
        <time>2011-09-02T16:03:46Z</time>
      </trkpt>
      <trkpt lat="48.26408" lon="-0.35999">
        <ele>300.5</ele>
        <time>2011-09-02T16:03:52Z</time>
      </trkpt>
      <trkpt lat="48.26398" lon="-0.35991">
        <ele>301</ele>
        <time>2011-09-02T16:04:00Z</time>
      </trkpt>
      <trkpt lat="48.26391" lon="-0.35985">
        <ele>301</ele>
        <time>2011-09-02T16:04:06Z</time>
      </trkpt>
      <trkpt lat="48.26384" lon="-0.35975">
        <ele>301</ele>
        <time>2011-09-02T16:04:14Z</time>
      </trkpt>
      <trkpt lat="48.26373" lon="-0.35974">
        <ele>301.5</ele>
        <time>2011-09-02T16:04:22Z</time>
      </trkpt>
      <trkpt lat="48.26367" lon="-0.35971">
        <ele>301.5</ele>
        <time>2011-09-02T16:04:30Z</time>
      </trkpt>
      <trkpt lat="48.26362" lon="-0.35973">
        <ele>302</ele>
        <time>2011-09-02T16:04:40Z</time>
      </trkpt>
      <trkpt lat="48.26362" lon="-0.35973">
        <ele>302</ele>
        <time>2011-09-02T16:05:08Z</time>
      </trkpt>
      <trkpt lat="48.26355" lon="-0.3597">
        <ele>300</ele>
        <time>2011-09-02T16:05:10Z</time>
      </trkpt>
      <trkpt lat="48.2635" lon="-0.35969">
        <ele>299.5</ele>
        <time>2011-09-02T16:05:14Z</time>
      </trkpt>
      <trkpt lat="48.26342" lon="-0.35969">
        <ele>300.5</ele>
        <time>2011-09-02T16:05:20Z</time>
      </trkpt>
      <trkpt lat="48.26337" lon="-0.35969">
        <ele>301</ele>
        <time>2011-09-02T16:05:24Z</time>
      </trkpt>
      <trkpt lat="48.26333" lon="-0.3597">
        <ele>301</ele>
        <time>2011-09-02T16:05:28Z</time>
      </trkpt>
      <trkpt lat="48.26327" lon="-0.35975">
        <ele>301.5</ele>
        <time>2011-09-02T16:05:34Z</time>
      </trkpt>
      <trkpt lat="48.26324" lon="-0.35982">
        <ele>302</ele>
        <time>2011-09-02T16:05:38Z</time>
      </trkpt>
      <trkpt lat="48.26317" lon="-0.3599">
        <ele>301</ele>
        <time>2011-09-02T16:05:46Z</time>
      </trkpt>
      <trkpt lat="48.26313" lon="-0.35993">
        <ele>300.5</ele>
        <time>2011-09-02T16:05:50Z</time>
      </trkpt>
      <trkpt lat="48.26304" lon="-0.35997">
        <ele>301.5</ele>
        <time>2011-09-02T16:05:54Z</time>
      </trkpt>
      <trkpt lat="48.26296" lon="-0.36009">
        <ele>300</ele>
        <time>2011-09-02T16:06:06Z</time>
      </trkpt>
      <trkpt lat="48.26293" lon="-0.35999">
        <ele>300</ele>
        <time>2011-09-02T16:06:24Z</time>
      </trkpt>
      <trkpt lat="48.26288" lon="-0.35999">
        <ele>299</ele>
        <time>2011-09-02T16:06:28Z</time>
      </trkpt>
      <trkpt lat="48.26283" lon="-0.36">
        <ele>298</ele>
        <time>2011-09-02T16:06:32Z</time>
      </trkpt>
      <trkpt lat="48.26279" lon="-0.36004">
        <ele>298</ele>
        <time>2011-09-02T16:06:36Z</time>
      </trkpt>
      <trkpt lat="48.26275" lon="-0.36006">
        <ele>298.5</ele>
        <time>2011-09-02T16:06:40Z</time>
      </trkpt>
      <trkpt lat="48.26272" lon="-0.36009">
        <ele>300</ele>
        <time>2011-09-02T16:06:42Z</time>
      </trkpt>
      <trkpt lat="48.2626" lon="-0.36022">
        <ele>301.5</ele>
        <time>2011-09-02T16:06:50Z</time>
      </trkpt>
      <trkpt lat="48.26257" lon="-0.36025">
        <ele>302</ele>
        <time>2011-09-02T16:06:52Z</time>
      </trkpt>
      <trkpt lat="48.26245" lon="-0.36037">
        <ele>302</ele>
        <time>2011-09-02T16:07:04Z</time>
      </trkpt>
      <trkpt lat="48.26227" lon="-0.36043">
        <ele>300.5</ele>
        <time>2011-09-02T16:07:16Z</time>
      </trkpt>
      <trkpt lat="48.26225" lon="-0.36044">
        <ele>300.5</ele>
        <time>2011-09-02T16:07:18Z</time>
      </trkpt>
      <trkpt lat="48.26217" lon="-0.36048">
        <ele>300</ele>
        <time>2011-09-02T16:07:28Z</time>
      </trkpt>
      <trkpt lat="48.26217" lon="-0.36048">
        <ele>300</ele>
        <time>2011-09-02T16:07:56Z</time>
      </trkpt>
      <trkpt lat="48.26217" lon="-0.36048">
        <ele>300</ele>
        <time>2011-09-02T16:08:20Z</time>
      </trkpt>
      <trkpt lat="48.26217" lon="-0.36048">
        <ele>300</ele>
        <time>2011-09-02T16:08:48Z</time>
      </trkpt>
      <trkpt lat="48.26217" lon="-0.36048">
        <ele>300</ele>
        <time>2011-09-02T16:09:15Z</time>
      </trkpt>
      <trkpt lat="48.26217" lon="-0.36048">
        <ele>300</ele>
        <time>2011-09-02T16:09:42Z</time>
      </trkpt>
      <trkpt lat="48.26217" lon="-0.36048">
        <ele>300</ele>
        <time>2011-09-02T16:10:12Z</time>
      </trkpt>
      <trkpt lat="48.26198" lon="-0.36051">
        <ele>295.5</ele>
        <time>2011-09-02T16:10:16Z</time>
      </trkpt>
      <trkpt lat="48.26192" lon="-0.36054">
        <ele>294</ele>
        <time>2011-09-02T16:10:28Z</time>
      </trkpt>
      <trkpt lat="48.26187" lon="-0.36052">
        <ele>292.5</ele>
        <time>2011-09-02T16:10:34Z</time>
      </trkpt>
      <trkpt lat="48.26182" lon="-0.3605">
        <ele>292</ele>
        <time>2011-09-02T16:10:44Z</time>
      </trkpt>
      <trkpt lat="48.26176" lon="-0.36049">
        <ele>292</ele>
        <time>2011-09-02T16:10:52Z</time>
      </trkpt>
      <trkpt lat="48.26169" lon="-0.36053">
        <ele>294</ele>
        <time>2011-09-02T16:11:04Z</time>
      </trkpt>
      <trkpt lat="48.26163" lon="-0.36052">
        <ele>293.5</ele>
        <time>2011-09-02T16:11:10Z</time>
      </trkpt>
      <trkpt lat="48.26158" lon="-0.36051">
        <ele>292.5</ele>
        <time>2011-09-02T16:11:16Z</time>
      </trkpt>
      <trkpt lat="48.26152" lon="-0.36053">
        <ele>292</ele>
        <time>2011-09-02T16:11:20Z</time>
      </trkpt>
      <trkpt lat="48.26144" lon="-0.36055">
        <ele>291</ele>
        <time>2011-09-02T16:11:28Z</time>
      </trkpt>
      <trkpt lat="48.26139" lon="-0.36055">
        <ele>290.5</ele>
        <time>2011-09-02T16:11:32Z</time>
      </trkpt>
      <trkpt lat="48.26133" lon="-0.36056">
        <ele>290.5</ele>
        <time>2011-09-02T16:11:38Z</time>
      </trkpt>
      <trkpt lat="48.26129" lon="-0.3606">
        <ele>290</ele>
        <time>2011-09-02T16:11:42Z</time>
      </trkpt>
      <trkpt lat="48.26119" lon="-0.36062">
        <ele>289</ele>
        <time>2011-09-02T16:11:54Z</time>
      </trkpt>
      <trkpt lat="48.26113" lon="-0.36056">
        <ele>289</ele>
        <time>2011-09-02T16:12:04Z</time>
      </trkpt>
      <trkpt lat="48.26109" lon="-0.36054">
        <ele>290</ele>
        <time>2011-09-02T16:12:08Z</time>
      </trkpt>
      <trkpt lat="48.26103" lon="-0.36053">
        <ele>290.5</ele>
        <time>2011-09-02T16:12:14Z</time>
      </trkpt>
      <trkpt lat="48.261" lon="-0.36053">
        <ele>292</ele>
        <time>2011-09-02T16:12:18Z</time>
      </trkpt>
      <trkpt lat="48.26089" lon="-0.36056">
        <ele>293.5</ele>
        <time>2011-09-02T16:12:26Z</time>
      </trkpt>
      <trkpt lat="48.26083" lon="-0.36059">
        <ele>294.5</ele>
        <time>2011-09-02T16:12:30Z</time>
      </trkpt>
      <trkpt lat="48.26081" lon="-0.36061">
        <ele>293.5</ele>
        <time>2011-09-02T16:12:32Z</time>
      </trkpt>
      <trkpt lat="48.26068" lon="-0.36065">
        <ele>295</ele>
        <time>2011-09-02T16:12:42Z</time>
      </trkpt>
      <trkpt lat="48.26057" lon="-0.36058">
        <ele>292.5</ele>
        <time>2011-09-02T16:12:52Z</time>
      </trkpt>
      <trkpt lat="48.26053" lon="-0.36054">
        <ele>292.5</ele>
        <time>2011-09-02T16:12:56Z</time>
      </trkpt>
      <trkpt lat="48.2604" lon="-0.36054">
        <ele>293.5</ele>
        <time>2011-09-02T16:13:06Z</time>
      </trkpt>
      <trkpt lat="48.26034" lon="-0.36057">
        <ele>293.5</ele>
        <time>2011-09-02T16:13:10Z</time>
      </trkpt>
      <trkpt lat="48.26026" lon="-0.36061">
        <ele>293.5</ele>
        <time>2011-09-02T16:13:14Z</time>
      </trkpt>
      <trkpt lat="48.26021" lon="-0.36061">
        <ele>293.5</ele>
        <time>2011-09-02T16:13:18Z</time>
      </trkpt>
      <trkpt lat="48.26018" lon="-0.3606">
        <ele>293.5</ele>
        <time>2011-09-02T16:13:22Z</time>
      </trkpt>
      <trkpt lat="48.26005" lon="-0.36058">
        <ele>293</ele>
        <time>2011-09-02T16:13:32Z</time>
      </trkpt>
      <trkpt lat="48.26002" lon="-0.36058">
        <ele>293</ele>
        <time>2011-09-02T16:13:34Z</time>
      </trkpt>
      <trkpt lat="48.25994" lon="-0.36055">
        <ele>293</ele>
        <time>2011-09-02T16:13:42Z</time>
      </trkpt>
      <trkpt lat="48.25983" lon="-0.36052">
        <ele>293</ele>
        <time>2011-09-02T16:13:48Z</time>
      </trkpt>
      <trkpt lat="48.25976" lon="-0.36047">
        <ele>293</ele>
        <time>2011-09-02T16:13:54Z</time>
      </trkpt>
      <trkpt lat="48.25973" lon="-0.36039">
        <ele>294.5</ele>
        <time>2011-09-02T16:13:58Z</time>
      </trkpt>
      <trkpt lat="48.25967" lon="-0.36031">
        <ele>291</ele>
        <time>2011-09-02T16:14:06Z</time>
      </trkpt>
      <trkpt lat="48.25963" lon="-0.36027">
        <ele>293</ele>
        <time>2011-09-02T16:14:10Z</time>
      </trkpt>
      <trkpt lat="48.25955" lon="-0.36019">
        <ele>288.5</ele>
        <time>2011-09-02T16:14:20Z</time>
      </trkpt>
      <trkpt lat="48.25951" lon="-0.36013">
        <ele>286</ele>
        <time>2011-09-02T16:14:24Z</time>
      </trkpt>
      <trkpt lat="48.25948" lon="-0.36006">
        <ele>280</ele>
        <time>2011-09-02T16:14:30Z</time>
      </trkpt>
      <trkpt lat="48.25949" lon="-0.35994">
        <ele>279.5</ele>
        <time>2011-09-02T16:14:34Z</time>
      </trkpt>
      <trkpt lat="48.25943" lon="-0.35987">
        <ele>282.5</ele>
        <time>2011-09-02T16:14:38Z</time>
      </trkpt>
      <trkpt lat="48.25936" lon="-0.35981">
        <ele>283.5</ele>
        <time>2011-09-02T16:14:48Z</time>
      </trkpt>
      <trkpt lat="48.25936" lon="-0.35981">
        <ele>283.5</ele>
        <time>2011-09-02T16:15:18Z</time>
      </trkpt>
      <trkpt lat="48.25936" lon="-0.35981">
        <ele>283.5</ele>
        <time>2011-09-02T16:15:38Z</time>
      </trkpt>
      <trkpt lat="48.25936" lon="-0.35981">
        <ele>283.5</ele>
        <time>2011-09-02T16:16:10Z</time>
      </trkpt>
      <trkpt lat="48.25936" lon="-0.35981">
        <ele>283.5</ele>
        <time>2011-09-02T16:16:36Z</time>
      </trkpt>
      <trkpt lat="48.25929" lon="-0.35976">
        <ele>292.5</ele>
        <time>2011-09-02T16:16:38Z</time>
      </trkpt>
      <trkpt lat="48.25918" lon="-0.35974">
        <ele>293</ele>
        <time>2011-09-02T16:16:44Z</time>
      </trkpt>
      <trkpt lat="48.25907" lon="-0.3596">
        <ele>295</ele>
        <time>2011-09-02T16:16:54Z</time>
      </trkpt>
      <trkpt lat="48.25897" lon="-0.35951">
        <ele>293.5</ele>
        <time>2011-09-02T16:17:04Z</time>
      </trkpt>
      <trkpt lat="48.25888" lon="-0.35939">
        <ele>292.5</ele>
        <time>2011-09-02T16:17:14Z</time>
      </trkpt>
      <trkpt lat="48.25883" lon="-0.35916">
        <ele>291.5</ele>
        <time>2011-09-02T16:17:24Z</time>
      </trkpt>
      <trkpt lat="48.25882" lon="-0.35901">
        <ele>290</ele>
        <time>2011-09-02T16:17:30Z</time>
      </trkpt>
      <trkpt lat="48.25874" lon="-0.3588">
        <ele>290.5</ele>
        <time>2011-09-02T16:17:44Z</time>
      </trkpt>
      <trkpt lat="48.25862" lon="-0.35866">
        <ele>289.5</ele>
        <time>2011-09-02T16:17:57Z</time>
      </trkpt>
      <trkpt lat="48.25857" lon="-0.35866">
        <ele>289.5</ele>
        <time>2011-09-02T16:17:59Z</time>
      </trkpt>
      <trkpt lat="48.2585" lon="-0.35847">
        <ele>293</ele>
        <time>2011-09-02T16:18:13Z</time>
      </trkpt>
      <trkpt lat="48.25843" lon="-0.35835">
        <ele>294</ele>
        <time>2011-09-02T16:18:19Z</time>
      </trkpt>
      <trkpt lat="48.25837" lon="-0.35826">
        <ele>290.5</ele>
        <time>2011-09-02T16:18:27Z</time>
      </trkpt>
      <trkpt lat="48.25829" lon="-0.3582">
        <ele>288</ele>
        <time>2011-09-02T16:18:33Z</time>
      </trkpt>
      <trkpt lat="48.25825" lon="-0.35814">
        <ele>288.5</ele>
        <time>2011-09-02T16:18:37Z</time>
      </trkpt>
      <trkpt lat="48.25816" lon="-0.35797">
        <ele>287</ele>
        <time>2011-09-02T16:18:49Z</time>
      </trkpt>
      <trkpt lat="48.25812" lon="-0.35787">
        <ele>286.5</ele>
        <time>2011-09-02T16:18:55Z</time>
      </trkpt>
      <trkpt lat="48.25809" lon="-0.3578">
        <ele>287</ele>
        <time>2011-09-02T16:18:59Z</time>
      </trkpt>
      <trkpt lat="48.25799" lon="-0.35766">
        <ele>292</ele>
        <time>2011-09-02T16:19:11Z</time>
      </trkpt>
      <trkpt lat="48.25794" lon="-0.35765">
        <ele>291</ele>
        <time>2011-09-02T16:19:15Z</time>
      </trkpt>
      <trkpt lat="48.25787" lon="-0.35758">
        <ele>292</ele>
        <time>2011-09-02T16:19:21Z</time>
      </trkpt>
      <trkpt lat="48.25781" lon="-0.35751">
        <ele>291.5</ele>
        <time>2011-09-02T16:19:27Z</time>
      </trkpt>
      <trkpt lat="48.25779" lon="-0.35748">
        <ele>291.5</ele>
        <time>2011-09-02T16:19:29Z</time>
      </trkpt>
      <trkpt lat="48.25774" lon="-0.35741">
        <ele>292.5</ele>
        <time>2011-09-02T16:19:35Z</time>
      </trkpt>
      <trkpt lat="48.25767" lon="-0.35733">
        <ele>293</ele>
        <time>2011-09-02T16:19:41Z</time>
      </trkpt>
      <trkpt lat="48.25764" lon="-0.3572">
        <ele>292.5</ele>
        <time>2011-09-02T16:19:47Z</time>
      </trkpt>
      <trkpt lat="48.25762" lon="-0.35711">
        <ele>293</ele>
        <time>2011-09-02T16:19:51Z</time>
      </trkpt>
      <trkpt lat="48.2576" lon="-0.35704">
        <ele>294</ele>
        <time>2011-09-02T16:19:55Z</time>
      </trkpt>
      <trkpt lat="48.25758" lon="-0.35695">
        <ele>294.5</ele>
        <time>2011-09-02T16:19:59Z</time>
      </trkpt>
      <trkpt lat="48.25752" lon="-0.35678">
        <ele>294.5</ele>
        <time>2011-09-02T16:20:09Z</time>
      </trkpt>
      <trkpt lat="48.25748" lon="-0.35665">
        <ele>295.5</ele>
        <time>2011-09-02T16:20:17Z</time>
      </trkpt>
      <trkpt lat="48.25744" lon="-0.3566">
        <ele>294</ele>
        <time>2011-09-02T16:20:21Z</time>
      </trkpt>
      <trkpt lat="48.25741" lon="-0.3565">
        <ele>292.5</ele>
        <time>2011-09-02T16:20:27Z</time>
      </trkpt>
      <trkpt lat="48.25737" lon="-0.3564">
        <ele>291</ele>
        <time>2011-09-02T16:20:33Z</time>
      </trkpt>
      <trkpt lat="48.25733" lon="-0.3563">
        <ele>292</ele>
        <time>2011-09-02T16:20:39Z</time>
      </trkpt>
      <trkpt lat="48.25726" lon="-0.35604">
        <ele>291.5</ele>
        <time>2011-09-02T16:20:55Z</time>
      </trkpt>
      <trkpt lat="48.25714" lon="-0.35582">
        <ele>288</ele>
        <time>2011-09-02T16:21:09Z</time>
      </trkpt>
      <trkpt lat="48.25713" lon="-0.35577">
        <ele>289.5</ele>
        <time>2011-09-02T16:21:11Z</time>
      </trkpt>
      <trkpt lat="48.25707" lon="-0.35562">
        <ele>296.5</ele>
        <time>2011-09-02T16:21:23Z</time>
      </trkpt>
      <trkpt lat="48.25705" lon="-0.3555">
        <ele>291</ele>
        <time>2011-09-02T16:21:41Z</time>
      </trkpt>
      <trkpt lat="48.25699" lon="-0.35536">
        <ele>283</ele>
        <time>2011-09-02T16:21:49Z</time>
      </trkpt>
      <trkpt lat="48.25685" lon="-0.35536">
        <ele>281</ele>
        <time>2011-09-02T16:21:57Z</time>
      </trkpt>
      <trkpt lat="48.25671" lon="-0.35526">
        <ele>280</ele>
        <time>2011-09-02T16:22:07Z</time>
      </trkpt>
      <trkpt lat="48.25664" lon="-0.3552">
        <ele>283.5</ele>
        <time>2011-09-02T16:22:09Z</time>
      </trkpt>
      <trkpt lat="48.25656" lon="-0.35507">
        <ele>284.5</ele>
        <time>2011-09-02T16:22:15Z</time>
      </trkpt>
      <trkpt lat="48.25653" lon="-0.35502">
        <ele>286.5</ele>
        <time>2011-09-02T16:22:17Z</time>
      </trkpt>
      <trkpt lat="48.25653" lon="-0.35502">
        <ele>286.5</ele>
        <time>2011-09-02T16:23:03Z</time>
      </trkpt>
      <trkpt lat="48.25653" lon="-0.35502">
        <ele>286.5</ele>
        <time>2011-09-02T16:23:25Z</time>
      </trkpt>
      <trkpt lat="48.25653" lon="-0.35502">
        <ele>286.5</ele>
        <time>2011-09-02T16:23:44Z</time>
      </trkpt>
      <trkpt lat="48.25653" lon="-0.35502">
        <ele>286.5</ele>
        <time>2011-09-02T16:24:04Z</time>
      </trkpt>
      <trkpt lat="48.25634" lon="-0.35462">
        <ele>293.5</ele>
        <time>2011-09-02T16:24:12Z</time>
      </trkpt>
      <trkpt lat="48.25631" lon="-0.35454">
        <ele>292.5</ele>
        <time>2011-09-02T16:24:17Z</time>
      </trkpt>
      <trkpt lat="48.25625" lon="-0.35446">
        <ele>283</ele>
        <time>2011-09-02T16:24:27Z</time>
      </trkpt>
      <trkpt lat="48.25626" lon="-0.35415">
        <ele>284.5</ele>
        <time>2011-09-02T16:24:37Z</time>
      </trkpt>
      <trkpt lat="48.25628" lon="-0.35391">
        <ele>282.5</ele>
        <time>2011-09-02T16:24:49Z</time>
      </trkpt>
      <trkpt lat="48.25612" lon="-0.35386">
        <ele>283.5</ele>
        <time>2011-09-02T16:24:59Z</time>
      </trkpt>
      <trkpt lat="48.25607" lon="-0.35376">
        <ele>285.5</ele>
        <time>2011-09-02T16:25:05Z</time>
      </trkpt>
      <trkpt lat="48.25606" lon="-0.35365">
        <ele>284</ele>
        <time>2011-09-02T16:25:11Z</time>
      </trkpt>
      <trkpt lat="48.25605" lon="-0.35348">
        <ele>291.5</ele>
        <time>2011-09-02T16:25:17Z</time>
      </trkpt>
      <trkpt lat="48.25598" lon="-0.35343">
        <ele>291.5</ele>
        <time>2011-09-02T16:25:21Z</time>
      </trkpt>
      <trkpt lat="48.25596" lon="-0.35324">
        <ele>287</ele>
        <time>2011-09-02T16:25:31Z</time>
      </trkpt>
      <trkpt lat="48.25592" lon="-0.35316">
        <ele>284.5</ele>
        <time>2011-09-02T16:25:37Z</time>
      </trkpt>
      <trkpt lat="48.25591" lon="-0.35301">
        <ele>285</ele>
        <time>2011-09-02T16:25:47Z</time>
      </trkpt>
      <trkpt lat="48.25589" lon="-0.35291">
        <ele>288.5</ele>
        <time>2011-09-02T16:25:51Z</time>
      </trkpt>
      <trkpt lat="48.25584" lon="-0.35284">
        <ele>289</ele>
        <time>2011-09-02T16:25:55Z</time>
      </trkpt>
      <trkpt lat="48.25577" lon="-0.35282">
        <ele>288</ele>
        <time>2011-09-02T16:26:03Z</time>
      </trkpt>
      <trkpt lat="48.25562" lon="-0.3527">
        <ele>291</ele>
        <time>2011-09-02T16:26:13Z</time>
      </trkpt>
      <trkpt lat="48.25556" lon="-0.35258">
        <ele>292</ele>
        <time>2011-09-02T16:26:23Z</time>
      </trkpt>
      <trkpt lat="48.25553" lon="-0.35246">
        <ele>293.5</ele>
        <time>2011-09-02T16:26:33Z</time>
      </trkpt>
      <trkpt lat="48.25547" lon="-0.35238">
        <ele>297.5</ele>
        <time>2011-09-02T16:26:37Z</time>
      </trkpt>
      <trkpt lat="48.25537" lon="-0.35232">
        <ele>295</ele>
        <time>2011-09-02T16:26:43Z</time>
      </trkpt>
      <trkpt lat="48.25533" lon="-0.35238">
        <ele>299</ele>
        <time>2011-09-02T16:26:57Z</time>
      </trkpt>
      <trkpt lat="48.25533" lon="-0.35238">
        <ele>299</ele>
        <time>2011-09-02T16:27:23Z</time>
      </trkpt>
      <trkpt lat="48.25541" lon="-0.35244">
        <ele>297.5</ele>
        <time>2011-09-02T16:27:27Z</time>
      </trkpt>
      <trkpt lat="48.25532" lon="-0.3526">
        <ele>300.5</ele>
        <time>2011-09-02T16:27:37Z</time>
      </trkpt>
      <trkpt lat="48.25534" lon="-0.3527">
        <ele>299.5</ele>
        <time>2011-09-02T16:27:43Z</time>
      </trkpt>
      <trkpt lat="48.25527" lon="-0.35279">
        <ele>299</ele>
        <time>2011-09-02T16:27:53Z</time>
      </trkpt>
      <trkpt lat="48.25523" lon="-0.3529">
        <ele>298.5</ele>
        <time>2011-09-02T16:28:01Z</time>
      </trkpt>
      <trkpt lat="48.25517" lon="-0.35309">
        <ele>297</ele>
        <time>2011-09-02T16:28:07Z</time>
      </trkpt>
      <trkpt lat="48.25512" lon="-0.35324">
        <ele>296.5</ele>
        <time>2011-09-02T16:28:15Z</time>
      </trkpt>
      <trkpt lat="48.25507" lon="-0.35329">
        <ele>295.5</ele>
        <time>2011-09-02T16:28:19Z</time>
      </trkpt>
      <trkpt lat="48.25502" lon="-0.35338">
        <ele>297.5</ele>
        <time>2011-09-02T16:28:25Z</time>
      </trkpt>
      <trkpt lat="48.25499" lon="-0.35343">
        <ele>298.5</ele>
        <time>2011-09-02T16:28:31Z</time>
      </trkpt>
      <trkpt lat="48.25489" lon="-0.3535">
        <ele>294</ele>
        <time>2011-09-02T16:28:41Z</time>
      </trkpt>
      <trkpt lat="48.25485" lon="-0.35354">
        <ele>293</ele>
        <time>2011-09-02T16:28:45Z</time>
      </trkpt>
      <trkpt lat="48.25476" lon="-0.35364">
        <ele>289.5</ele>
        <time>2011-09-02T16:28:53Z</time>
      </trkpt>
      <trkpt lat="48.25461" lon="-0.35377">
        <ele>286</ele>
        <time>2011-09-02T16:29:03Z</time>
      </trkpt>
      <trkpt lat="48.25451" lon="-0.35383">
        <ele>282.5</ele>
        <time>2011-09-02T16:29:13Z</time>
      </trkpt>
      <trkpt lat="48.25441" lon="-0.35399">
        <ele>277.5</ele>
        <time>2011-09-02T16:29:27Z</time>
      </trkpt>
      <trkpt lat="48.25433" lon="-0.3541">
        <ele>276.5</ele>
        <time>2011-09-02T16:29:35Z</time>
      </trkpt>
      <trkpt lat="48.25427" lon="-0.35416">
        <ele>276.5</ele>
        <time>2011-09-02T16:29:39Z</time>
      </trkpt>
      <trkpt lat="48.25417" lon="-0.35423">
        <ele>276.5</ele>
        <time>2011-09-02T16:29:49Z</time>
      </trkpt>
      <trkpt lat="48.25412" lon="-0.35425">
        <ele>276</ele>
        <time>2011-09-02T16:29:53Z</time>
      </trkpt>
      <trkpt lat="48.25412" lon="-0.35425">
        <ele>276</ele>
        <time>2011-09-02T16:30:45Z</time>
      </trkpt>
      <trkpt lat="48.25385" lon="-0.35457">
        <ele>275.5</ele>
        <time>2011-09-02T16:30:51Z</time>
      </trkpt>
      <trkpt lat="48.25379" lon="-0.35471">
        <ele>277</ele>
        <time>2011-09-02T16:31:01Z</time>
      </trkpt>
      <trkpt lat="48.25372" lon="-0.35481">
        <ele>276.5</ele>
        <time>2011-09-02T16:31:15Z</time>
      </trkpt>
      <trkpt lat="48.25358" lon="-0.35495">
        <ele>274.5</ele>
        <time>2011-09-02T16:31:29Z</time>
      </trkpt>
      <trkpt lat="48.25352" lon="-0.35501">
        <ele>274</ele>
        <time>2011-09-02T16:31:35Z</time>
      </trkpt>
      <trkpt lat="48.25349" lon="-0.35503">
        <ele>274.5</ele>
        <time>2011-09-02T16:31:39Z</time>
      </trkpt>
      <trkpt lat="48.25345" lon="-0.35506">
        <ele>274.5</ele>
        <time>2011-09-02T16:31:43Z</time>
      </trkpt>
      <trkpt lat="48.25332" lon="-0.35521">
        <ele>275.5</ele>
        <time>2011-09-02T16:31:53Z</time>
      </trkpt>
      <trkpt lat="48.25329" lon="-0.35527">
        <ele>277</ele>
        <time>2011-09-02T16:31:57Z</time>
      </trkpt>
      <trkpt lat="48.25327" lon="-0.3553">
        <ele>279.5</ele>
        <time>2011-09-02T16:31:59Z</time>
      </trkpt>
      <trkpt lat="48.25319" lon="-0.35538">
        <ele>279.5</ele>
        <time>2011-09-02T16:32:05Z</time>
      </trkpt>
      <trkpt lat="48.25316" lon="-0.35544">
        <ele>280.5</ele>
        <time>2011-09-02T16:32:11Z</time>
      </trkpt>
      <trkpt lat="48.25309" lon="-0.35559">
        <ele>280</ele>
        <time>2011-09-02T16:32:19Z</time>
      </trkpt>
      <trkpt lat="48.25306" lon="-0.35565">
        <ele>279.5</ele>
        <time>2011-09-02T16:32:23Z</time>
      </trkpt>
      <trkpt lat="48.253" lon="-0.35575">
        <ele>279</ele>
        <time>2011-09-02T16:32:29Z</time>
      </trkpt>
      <trkpt lat="48.2529" lon="-0.35587">
        <ele>277</ele>
        <time>2011-09-02T16:32:37Z</time>
      </trkpt>
      <trkpt lat="48.25278" lon="-0.356">
        <ele>274.5</ele>
        <time>2011-09-02T16:32:45Z</time>
      </trkpt>
      <trkpt lat="48.2527" lon="-0.35607">
        <ele>274</ele>
        <time>2011-09-02T16:32:55Z</time>
      </trkpt>
      <trkpt lat="48.25263" lon="-0.3561">
        <ele>271</ele>
        <time>2011-09-02T16:32:59Z</time>
      </trkpt>
      <trkpt lat="48.25252" lon="-0.35621">
        <ele>269</ele>
        <time>2011-09-02T16:33:09Z</time>
      </trkpt>
      <trkpt lat="48.25248" lon="-0.35627">
        <ele>265</ele>
        <time>2011-09-02T16:33:13Z</time>
      </trkpt>
      <trkpt lat="48.2524" lon="-0.3564">
        <ele>264</ele>
        <time>2011-09-02T16:33:23Z</time>
      </trkpt>
      <trkpt lat="48.25238" lon="-0.35649">
        <ele>268</ele>
        <time>2011-09-02T16:33:29Z</time>
      </trkpt>
      <trkpt lat="48.25228" lon="-0.35654">
        <ele>266.5</ele>
        <time>2011-09-02T16:33:35Z</time>
      </trkpt>
      <trkpt lat="48.25219" lon="-0.35663">
        <ele>265.5</ele>
        <time>2011-09-02T16:33:43Z</time>
      </trkpt>
      <trkpt lat="48.25209" lon="-0.35674">
        <ele>265.5</ele>
        <time>2011-09-02T16:33:55Z</time>
      </trkpt>
      <trkpt lat="48.252" lon="-0.35684">
        <ele>264</ele>
        <time>2011-09-02T16:34:05Z</time>
      </trkpt>
      <trkpt lat="48.25194" lon="-0.35688">
        <ele>264</ele>
        <time>2011-09-02T16:34:09Z</time>
      </trkpt>
      <trkpt lat="48.25188" lon="-0.35701">
        <ele>265</ele>
        <time>2011-09-02T16:34:17Z</time>
      </trkpt>
      <trkpt lat="48.25184" lon="-0.35706">
        <ele>262.5</ele>
        <time>2011-09-02T16:34:21Z</time>
      </trkpt>
      <trkpt lat="48.25177" lon="-0.35714">
        <ele>263.5</ele>
        <time>2011-09-02T16:34:27Z</time>
      </trkpt>
      <trkpt lat="48.25175" lon="-0.35716">
        <ele>264.5</ele>
        <time>2011-09-02T16:34:29Z</time>
      </trkpt>
      <trkpt lat="48.25171" lon="-0.35722">
        <ele>261.5</ele>
        <time>2011-09-02T16:34:33Z</time>
      </trkpt>
      <trkpt lat="48.25165" lon="-0.35737">
        <ele>258.5</ele>
        <time>2011-09-02T16:34:45Z</time>
      </trkpt>
      <trkpt lat="48.25161" lon="-0.35747">
        <ele>256.5</ele>
        <time>2011-09-02T16:34:53Z</time>
      </trkpt>
      <trkpt lat="48.25154" lon="-0.35756">
        <ele>253.5</ele>
        <time>2011-09-02T16:35:01Z</time>
      </trkpt>
      <trkpt lat="48.25148" lon="-0.35773">
        <ele>255.5</ele>
        <time>2011-09-02T16:35:09Z</time>
      </trkpt>
      <trkpt lat="48.25146" lon="-0.35782">
        <ele>257</ele>
        <time>2011-09-02T16:35:15Z</time>
      </trkpt>
      <trkpt lat="48.25142" lon="-0.35791">
        <ele>258</ele>
        <time>2011-09-02T16:35:23Z</time>
      </trkpt>
      <trkpt lat="48.25141" lon="-0.35794">
        <ele>258</ele>
        <time>2011-09-02T16:35:25Z</time>
      </trkpt>
      <trkpt lat="48.25139" lon="-0.35798">
        <ele>258</ele>
        <time>2011-09-02T16:35:27Z</time>
      </trkpt>
      <trkpt lat="48.25137" lon="-0.35804">
        <ele>257</ele>
        <time>2011-09-02T16:35:31Z</time>
      </trkpt>
      <trkpt lat="48.25136" lon="-0.35817">
        <ele>261.5</ele>
        <time>2011-09-02T16:35:35Z</time>
      </trkpt>
      <trkpt lat="48.25135" lon="-0.35832">
        <ele>258.5</ele>
        <time>2011-09-02T16:35:43Z</time>
      </trkpt>
      <trkpt lat="48.25138" lon="-0.35844">
        <ele>257</ele>
        <time>2011-09-02T16:35:49Z</time>
      </trkpt>
      <trkpt lat="48.25137" lon="-0.35851">
        <ele>256</ele>
        <time>2011-09-02T16:35:53Z</time>
      </trkpt>
      <trkpt lat="48.25137" lon="-0.35855">
        <ele>255.5</ele>
        <time>2011-09-02T16:35:55Z</time>
      </trkpt>
      <trkpt lat="48.25137" lon="-0.35865">
        <ele>255.5</ele>
        <time>2011-09-02T16:36:01Z</time>
      </trkpt>
      <trkpt lat="48.25138" lon="-0.35876">
        <ele>257.5</ele>
        <time>2011-09-02T16:36:05Z</time>
      </trkpt>
      <trkpt lat="48.25137" lon="-0.35884">
        <ele>256</ele>
        <time>2011-09-02T16:36:09Z</time>
      </trkpt>
      <trkpt lat="48.25134" lon="-0.35896">
        <ele>253.5</ele>
        <time>2011-09-02T16:36:15Z</time>
      </trkpt>
      <trkpt lat="48.25136" lon="-0.35903">
        <ele>251</ele>
        <time>2011-09-02T16:36:25Z</time>
      </trkpt>
      <trkpt lat="48.25141" lon="-0.35911">
        <ele>253.5</ele>
        <time>2011-09-02T16:36:29Z</time>
      </trkpt>
      <trkpt lat="48.2514" lon="-0.35929">
        <ele>253.5</ele>
        <time>2011-09-02T16:36:39Z</time>
      </trkpt>
      <trkpt lat="48.25138" lon="-0.35936">
        <ele>252</ele>
        <time>2011-09-02T16:36:43Z</time>
      </trkpt>
      <trkpt lat="48.25135" lon="-0.35946">
        <ele>248.5</ele>
        <time>2011-09-02T16:36:51Z</time>
      </trkpt>
      <trkpt lat="48.25137" lon="-0.35953">
        <ele>247.5</ele>
        <time>2011-09-02T16:36:55Z</time>
      </trkpt>
      <trkpt lat="48.25138" lon="-0.35966">
        <ele>245</ele>
        <time>2011-09-02T16:37:03Z</time>
      </trkpt>
      <trkpt lat="48.25142" lon="-0.35975">
        <ele>246</ele>
        <time>2011-09-02T16:37:13Z</time>
      </trkpt>
      <trkpt lat="48.25145" lon="-0.35981">
        <ele>245.5</ele>
        <time>2011-09-02T16:37:17Z</time>
      </trkpt>
      <trkpt lat="48.25151" lon="-0.35987">
        <ele>243</ele>
        <time>2011-09-02T16:37:23Z</time>
      </trkpt>
      <trkpt lat="48.25156" lon="-0.3599">
        <ele>242.5</ele>
        <time>2011-09-02T16:37:27Z</time>
      </trkpt>
      <trkpt lat="48.25159" lon="-0.35992">
        <ele>242</ele>
        <time>2011-09-02T16:37:29Z</time>
      </trkpt>
      <trkpt lat="48.25163" lon="-0.35997">
        <ele>241</ele>
        <time>2011-09-02T16:37:33Z</time>
      </trkpt>
      <trkpt lat="48.25167" lon="-0.36007">
        <ele>240</ele>
        <time>2011-09-02T16:37:43Z</time>
      </trkpt>
      <trkpt lat="48.25169" lon="-0.36015">
        <ele>238</ele>
        <time>2011-09-02T16:37:47Z</time>
      </trkpt>
      <trkpt lat="48.25178" lon="-0.36021">
        <ele>236</ele>
        <time>2011-09-02T16:37:53Z</time>
      </trkpt>
      <trkpt lat="48.25183" lon="-0.36027">
        <ele>234.5</ele>
        <time>2011-09-02T16:37:59Z</time>
      </trkpt>
      <trkpt lat="48.25185" lon="-0.3603">
        <ele>234</ele>
        <time>2011-09-02T16:38:01Z</time>
      </trkpt>
      <trkpt lat="48.25192" lon="-0.36034">
        <ele>235</ele>
        <time>2011-09-02T16:38:07Z</time>
      </trkpt>
      <trkpt lat="48.25197" lon="-0.3603">
        <ele>235</ele>
        <time>2011-09-02T16:38:13Z</time>
      </trkpt>
      <trkpt lat="48.25201" lon="-0.36019">
        <ele>232</ele>
        <time>2011-09-02T16:38:19Z</time>
      </trkpt>
      <trkpt lat="48.25203" lon="-0.36013">
        <ele>231</ele>
        <time>2011-09-02T16:38:23Z</time>
      </trkpt>
      <trkpt lat="48.25204" lon="-0.3601">
        <ele>229.5</ele>
        <time>2011-09-02T16:38:25Z</time>
      </trkpt>
      <trkpt lat="48.25212" lon="-0.35995">
        <ele>225.5</ele>
        <time>2011-09-02T16:38:37Z</time>
      </trkpt>
      <trkpt lat="48.25214" lon="-0.35987">
        <ele>225</ele>
        <time>2011-09-02T16:38:43Z</time>
      </trkpt>
      <trkpt lat="48.25216" lon="-0.35981">
        <ele>225.5</ele>
        <time>2011-09-02T16:38:47Z</time>
      </trkpt>
      <trkpt lat="48.25221" lon="-0.35974">
        <ele>229</ele>
        <time>2011-09-02T16:38:53Z</time>
      </trkpt>
      <trkpt lat="48.25226" lon="-0.35966">
        <ele>229.5</ele>
        <time>2011-09-02T16:39:01Z</time>
      </trkpt>
      <trkpt lat="48.25215" lon="-0.35953">
        <ele>229.5</ele>
        <time>2011-09-02T16:39:23Z</time>
      </trkpt>
      <trkpt lat="48.25215" lon="-0.35953">
        <ele>199.6</ele>
        <time>2011-09-02T16:39:35Z</time>
      </trkpt>
    </trkseg>
  </trk>
</gpx>